Wetterdaten: Mittwoch, 15.05.2013
Datum Zeit Temp. Aussen +5cm Feuchte Auss Luftdruck Regen Sonnenschein Regendauer UV Solar Windben
15.05.2013 00:00 9,8 C 8,4 C 94 % 1002,7 hPa 0,0 l/m 0 min 0 min 0,0 UV-I 0 W/m 0,0 km/h (0 Bft)
15.05.2013 00:02 9,8 C 8,4 C 94 % 1002,6 hPa 0,0 l/m 0 min 0 min 0,0 UV-I 0 W/m 0,0 km/h (0 Bft)
15.05.2013 00:06 9,8 C 8,4 C 94 % 1002,7 hPa 0,0 l/m 0 min 0 min 0,0 UV-I 0 W/m 0,0 km/h (0 Bft)
15.05.2013 00:08 9,8 C 8,4 C 94 % 1002,7 hPa 0,0 l/m 0 min 0 min 0,0 UV-I 0 W/m 0,0 km/h (0 Bft)
15.05.2013 00:10 9,7 C 8,4 C 94 % 1002,7 hPa 0,0 l/m 0 min 0 min 0,0 UV-I 0 W/m 0,0 km/h (0 Bft)
15.05.2013 00:12 9,7 C 8,4 C 93 % 1002,7 hPa 0,0 l/m 0 min 0 min 0,0 UV-I 0 W/m 0,0 km/h (0 Bft)
15.05.2013 00:14 9,7 C 8,4 C 93 % 1002,7 hPa 0,0 l/m 0 min 0 min 0,0 UV-I 0 W/m 0,0 km/h (0 Bft)
15.05.2013 00:16 9,7 C 8,4 C 93 % 1002,6 hPa 0,0 l/m 0 min 0 min 0,0 UV-I 0 W/m 0,0 km/h (0 Bft)
15.05.2013 00:18 9,7 C 7,9 C 94 % 1002,6 hPa 0,0 l/m 0 min 0 min 0,0 UV-I 0 W/m 0,0 km/h (0 Bft)
15.05.2013 00:20 9,7 C 7,9 C 94 % 1002,6 hPa 0,0 l/m 0 min 0 min 0,0 UV-I 0 W/m 0,0 km/h (0 Bft)
15.05.2013 00:22 9,7 C 7,9 C 94 % 1002,5 hPa 0,0 l/m 0 min 0 min 0,0 UV-I 0 W/m 0,0 km/h (0 Bft)
15.05.2013 00:24 9,6 C 7,9 C 94 % 1002,5 hPa 0,0 l/m 0 min 0 min 0,0 UV-I 0 W/m 0,0 km/h (0 Bft)
15.05.2013 00:26 9,6 C 7,9 C 94 % 1002,5 hPa 0,0 l/m 0 min 0 min 0,0 UV-I 0 W/m 0,0 km/h (0 Bft)
15.05.2013 00:28 9,6 C 7,9 C 94 % 1002,4 hPa 0,0 l/m 0 min 0 min 0,0 UV-I 0 W/m 0,0 km/h (0 Bft)
15.05.2013 00:30 9,6 C 7,9 C 93 % 1002,4 hPa 0,0 l/m 0 min 0 min 0,0 UV-I 0 W/m 0,0 km/h (0 Bft)
15.05.2013 00:32 9,6 C 7,9 C 94 % 1002,5 hPa 0,0 l/m 0 min 0 min 0,0 UV-I 0 W/m 0,0 km/h (0 Bft)
15.05.2013 00:34 9,5 C 7,9 C 94 % 1002,4 hPa 0,0 l/m 0 min 0 min 0,0 UV-I 0 W/m 0,0 km/h (0 Bft)
15.05.2013 00:36 9,5 C 7,9 C 94 % 1002,3 hPa 0,0 l/m 0 min 0 min 0,0 UV-I 0 W/m 0,0 km/h (0 Bft)
15.05.2013 00:38 9,4 C 7,3 C 94 % 1002,3 hPa 0,0 l/m 0 min 0 min 0,0 UV-I 0 W/m 0,0 km/h (0 Bft)
15.05.2013 00:40 9,4 C 7,3 C 94 % 1002,4 hPa 0,0 l/m 0 min 0 min 0,0 UV-I 0 W/m 0,0 km/h (0 Bft)
15.05.2013 00:42 9,4 C 7,3 C 94 % 1002,3 hPa 0,0 l/m 0 min 0 min 0,0 UV-I 0 W/m 0,0 km/h (0 Bft)
15.05.2013 00:44 9,4 C 7,3 C 94 % 1002,4 hPa 0,0 l/m 0 min 0 min 0,0 UV-I 0 W/m 0,0 km/h (0 Bft)
15.05.2013 00:46 9,4 C 7,3 C 94 % 1002,2 hPa 0,0 l/m 0 min 0 min 0,0 UV-I 0 W/m 0,0 km/h (0 Bft)
15.05.2013 00:48 9,3 C 7,3 C 94 % 1002,2 hPa 0,0 l/m 0 min 0 min 0,0 UV-I 0 W/m 0,0 km/h (0 Bft)
15.05.2013 00:50 9,3 C 7,3 C 93 % 1002,2 hPa 0,0 l/m 0 min 0 min 0,0 UV-I 0 W/m 0,0 km/h (0 Bft)
15.05.2013 00:52 9,3 C 7,3 C 93 % 1002,2 hPa 0,0 l/m 0 min 0 min 0,0 UV-I 0 W/m 0,0 km/h (0 Bft)
15.05.2013 00:54 9,3 C 7,3 C 93 % 1002,2 hPa 0,0 l/m 0 min 0 min 0,0 UV-I 0 W/m 0,0 km/h (0 Bft)
15.05.2013 00:56 9,3 C 6,8 C 93 % 1002,1 hPa 0,0 l/m 0 min 0 min 0,0 UV-I 0 W/m 0,0 km/h (0 Bft)
15.05.2013 00:58 9,2 C 6,8 C 93 % 1002,1 hPa 0,0 l/m 0 min 0 min 0,0 UV-I 0 W/m 0,0 km/h (0 Bft)
15.05.2013 01:00 9,2 C 6,8 C 93 % 1002,0 hPa 0,0 l/m 0 min 0 min 0,0 UV-I 0 W/m 0,0 km/h (0 Bft)
15.05.2013 01:02 9,2 C 6,8 C 93 % 1002,0 hPa 0,0 l/m 0 min 0 min 0,0 UV-I 0 W/m 0,0 km/h (0 Bft)
15.05.2013 01:04 9,1 C 6,8 C 94 % 1002,0 hPa 0,0 l/m 0 min 0 min 0,0 UV-I 0 W/m 0,0 km/h (0 Bft)
15.05.2013 01:06 9,1 C 6,8 C 94 % 1002,0 hPa 0,0 l/m 0 min 0 min 0,0 UV-I 0 W/m 0,0 km/h (0 Bft)
15.05.2013 01:08 9,1 C 6,8 C 94 % 1002,0 hPa 0,0 l/m 0 min 0 min 0,0 UV-I 0 W/m 0,0 km/h (0 Bft)
15.05.2013 01:10 9,1 C 6,8 C 94 % 1002,0 hPa 0,0 l/m 0 min 0 min 0,0 UV-I 0 W/m 0,0 km/h (0 Bft)
15.05.2013 01:12 9,0 C 6,8 C 94 % 1001,9 hPa 0,0 l/m 0 min 0 min 0,0 UV-I 0 W/m 0,0 km/h (0 Bft)
15.05.2013 01:14 9,0 C 6,8 C 93 % 1001,9 hPa 0,0 l/m 0 min 0 min 0,0 UV-I 0 W/m 0,0 km/h (0 Bft)
15.05.2013 01:16 8,9 C 6,8 C 93 % 1001,8 hPa 0,0 l/m 0 min 0 min 0,0 UV-I 0 W/m 0,0 km/h (0 Bft)
15.05.2013 01:18 8,9 C 6,8 C 93 % 1001,8 hPa 0,0 l/m 0 min 0 min 0,0 UV-I 0 W/m 0,0 km/h (0 Bft)
15.05.2013 01:20 8,9 C 6,8 C 93 % 1001,7 hPa 0,0 l/m 0 min 0 min 0,0 UV-I 0 W/m 0,0 km/h (0 Bft)
15.05.2013 01:22 8,8 C 6,8 C 93 % 1001,7 hPa 0,0 l/m 0 min 0 min 0,0 UV-I 0 W/m 0,0 km/h (0 Bft)
15.05.2013 01:24 8,8 C 6,8 C 94 % 1001,6 hPa 0,0 l/m 0 min 0 min 0,0 UV-I 0 W/m 0,0 km/h (0 Bft)
15.05.2013 01:26 8,8 C 6,8 C 94 % 1001,5 hPa 0,0 l/m 0 min 0 min 0,0 UV-I 0 W/m 0,0 km/h (0 Bft)
15.05.2013 01:28 8,8 C 6,8 C 94 % 1001,5 hPa 0,0 l/m 0 min 0 min 0,0 UV-I 0 W/m 0,0 km/h (0 Bft)
15.05.2013 01:30 8,8 C 6,8 C 94 % 1001,5 hPa 0,0 l/m 0 min 0 min 0,0 UV-I 0 W/m 2,6 km/h (1 Bft)
15.05.2013 01:32 8,7 C 6,8 C 94 % 1001,5 hPa 0,0 l/m 0 min 0 min 0,0 UV-I 0 W/m 0,0 km/h (0 Bft)
15.05.2013 01:34 8,7 C 6,8 C 94 % 1001,5 hPa 0,0 l/m 0 min 0 min 0,0 UV-I 0 W/m 0,0 km/h (0 Bft)
15.05.2013 01:36 8,7 C 6,8 C 94 % 1001,5 hPa 0,0 l/m 0 min 0 min 0,0 UV-I 0 W/m 0,0 km/h (0 Bft)
15.05.2013 01:38 8,7 C 7,3 C 94 % 1001,5 hPa 0,0 l/m 0 min 0 min 0,0 UV-I 0 W/m 7,7 km/h (2 Bft)
15.05.2013 01:40 8,7 C 7,3 C 94 % 1001,5 hPa 0,0 l/m 0 min 0 min 0,0 UV-I 0 W/m 0,0 km/h (0 Bft)
15.05.2013 01:42 8,7 C 7,3 C 94 % 1001,4 hPa 0,0 l/m 0 min 0 min 0,0 UV-I 0 W/m 7,7 km/h (2 Bft)
15.05.2013 01:44 8,6 C 7,3 C 94 % 1001,3 hPa 0,0 l/m 0 min 0 min 0,0 UV-I 0 W/m 2,6 km/h (1 Bft)
15.05.2013 01:46 8,7 C 7,3 C 94 % 1001,3 hPa 0,0 l/m 0 min 0 min 0,0 UV-I 0 W/m 2,6 km/h (1 Bft)
15.05.2013 01:48 8,6 C 7,3 C 94 % 1001,3 hPa 0,0 l/m 0 min 0 min 0,0 UV-I 0 W/m 2,6 km/h (1 Bft)
15.05.2013 01:50 8,6 C 7,3 C 94 % 1001,2 hPa 0,0 l/m 0 min 0 min 0,0 UV-I 0 W/m 2,6 km/h (1 Bft)
15.05.2013 01:52 8,6 C 7,3 C 94 % 1001,2 hPa 0,0 l/m 0 min 0 min 0,0 UV-I 0 W/m 7,7 km/h (2 Bft)
15.05.2013 01:54 8,6 C 7,3 C 95 % 1001,1 hPa 0,0 l/m 0 min 0 min 0,0 UV-I 0 W/m 7,7 km/h (2 Bft)
15.05.2013 01:56 8,6 C 7,3 C 95 % 1001,1 hPa 0,0 l/m 0 min 0 min 0,0 UV-I 0 W/m 7,7 km/h (2 Bft)
15.05.2013 01:58 8,6 C 7,3 C 95 % 1001,1 hPa 0,0 l/m 0 min 0 min 0,0 UV-I 0 W/m 0,0 km/h (0 Bft)
15.05.2013 02:00 8,6 C 7,3 C 95 % 1001,0 hPa 0,0 l/m 0 min 0 min 0,0 UV-I 0 W/m 7,7 km/h (2 Bft)
15.05.2013 02:02 8,6 C 7,3 C 95 % 1001,0 hPa 0,0 l/m 0 min 0 min 0,0 UV-I 0 W/m 15,4 km/h (3 Bft)
15.05.2013 02:04 8,6 C 7,3 C 95 % 1001,0 hPa 0,0 l/m 0 min 0 min 0,0 UV-I 0 W/m 7,7 km/h (2 Bft)
15.05.2013 02:06 8,6 C 7,3 C 95 % 1001,0 hPa 0,0 l/m 0 min 0 min 0,0 UV-I 0 W/m 2,6 km/h (1 Bft)
15.05.2013 02:08 8,6 C 7,3 C 95 % 1000,9 hPa 0,0 l/m 0 min 0 min 0,0 UV-I 0 W/m 7,7 km/h (2 Bft)
15.05.2013 02:10 8,6 C 7,3 C 95 % 1000,9 hPa 0,0 l/m 0 min 0 min 0,0 UV-I 0 W/m 7,7 km/h (2 Bft)
15.05.2013 02:12 8,6 C 7,3 C 95 % 1000,9 hPa 0,0 l/m 0 min 0 min 0,0 UV-I 0 W/m 0,0 km/h (0 Bft)
15.05.2013 02:14 8,6 C 7,3 C 95 % 1000,9 hPa 0,0 l/m 0 min 0 min 0,0 UV-I 0 W/m 7,7 km/h (2 Bft)
15.05.2013 02:16 8,6 C 7,3 C 95 % 1000,8 hPa 0,0 l/m 0 min 0 min 0,0 UV-I 0 W/m 2,6 km/h (1 Bft)
15.05.2013 02:18 8,6 C 7,3 C 95 % 1000,8 hPa 0,0 l/m 0 min 0 min 0,0 UV-I 0 W/m 7,7 km/h (2 Bft)
15.05.2013 02:20 8,6 C 7,3 C 95 % 1000,8 hPa 0,0 l/m 0 min 0 min 0,0 UV-I 0 W/m 10,3 km/h (2 Bft)
15.05.2013 02:22 8,6 C 7,3 C 95 % 1000,8 hPa 0,0 l/m 0 min 0 min 0,0 UV-I 0 W/m 5,1 km/h (1 Bft)
15.05.2013 02:24 8,6 C 7,3 C 95 % 1000,7 hPa 0,0 l/m 0 min 0 min 0,0 UV-I 0 W/m 7,7 km/h (2 Bft)
15.05.2013 02:26 8,6 C 7,3 C 95 % 1000,7 hPa 0,0 l/m 0 min 0 min 0,0 UV-I 0 W/m 10,3 km/h (2 Bft)
15.05.2013 02:28 8,6 C 7,3 C 95 % 1000,7 hPa 0,0 l/m 0 min 0 min 0,0 UV-I 0 W/m 5,1 km/h (1 Bft)
15.05.2013 02:30 8,6 C 7,3 C 95 % 1000,7 hPa 0,0 l/m 0 min 0 min 0,0 UV-I 0 W/m 7,7 km/h (2 Bft)
15.05.2013 02:32 8,6 C 7,9 C 95 % 1000,7 hPa 0,0 l/m 0 min 0 min 0,0 UV-I 0 W/m 7,7 km/h (2 Bft)
15.05.2013 02:34 8,6 C 7,9 C 95 % 1000,6 hPa 0,0 l/m 0 min 0 min 0,0 UV-I 0 W/m 10,3 km/h (2 Bft)
15.05.2013 02:36 8,6 C 7,9 C 96 % 1000,6 hPa 0,0 l/m 0 min 0 min 0,0 UV-I 0 W/m 0,0 km/h (0 Bft)
15.05.2013 02:38 8,6 C 7,9 C 96 % 1000,6 hPa 0,0 l/m 0 min 0 min 0,0 UV-I 0 W/m 2,6 km/h (1 Bft)
15.05.2013 02:40 8,6 C 7,9 C 96 % 1000,5 hPa 0,0 l/m 0 min 0 min 0,0 UV-I 0 W/m 0,0 km/h (0 Bft)
15.05.2013 02:42 8,6 C 7,9 C 96 % 1000,4 hPa 0,0 l/m 0 min 0 min 0,0 UV-I 0 W/m 7,7 km/h (2 Bft)
15.05.2013 02:44 8,6 C 7,9 C 96 % 1000,5 hPa 0,0 l/m 0 min 0 min 0,0 UV-I 0 W/m 5,1 km/h (1 Bft)
15.05.2013 02:46 8,6 C 7,9 C 96 % 1000,5 hPa 0,0 l/m 0 min 0 min 0,0 UV-I 0 W/m 0,0 km/h (0 Bft)
15.05.2013 02:48 8,6 C 7,9 C 96 % 1000,5 hPa 0,0 l/m 0 min 0 min 0,0 UV-I 0 W/m 10,3 km/h (2 Bft)
15.05.2013 02:50 8,6 C 7,9 C 96 % 1000,5 hPa 0,0 l/m 0 min 0 min 0,0 UV-I 0 W/m 7,7 km/h (2 Bft)
15.05.2013 02:52 8,7 C 8,4 C 96 % 1000,6 hPa 0,0 l/m 0 min 0 min 0,0 UV-I 0 W/m 5,1 km/h (1 Bft)
15.05.2013 02:54 8,7 C 8,4 C 96 % 1000,5 hPa 0,0 l/m 0 min 0 min 0,0 UV-I 0 W/m 10,3 km/h (2 Bft)
15.05.2013 02:56 8,7 C 8,4 C 96 % 1000,5 hPa 0,0 l/m 0 min 0 min 0,0 UV-I 0 W/m 7,7 km/h (2 Bft)
15.05.2013 02:58 8,7 C 8,4 C 96 % 1000,4 hPa 0,0 l/m 0 min 0 min 0,0 UV-I 0 W/m 10,3 km/h (2 Bft)
15.05.2013 03:00 8,8 C 8,4 C 96 % 1000,4 hPa 0,0 l/m 0 min 0 min 0,0 UV-I 0 W/m 10,3 km/h (2 Bft)
15.05.2013 03:02 8,8 C 8,4 C 96 % 1000,4 hPa 0,0 l/m 0 min 0 min 0,0 UV-I 0 W/m 10,3 km/h (2 Bft)
15.05.2013 03:04 8,8 C 8,4 C 96 % 1000,4 hPa 0,0 l/m 0 min 0 min 0,0 UV-I 0 W/m 10,3 km/h (2 Bft)
15.05.2013 03:06 8,8 C 8,4 C 96 % 1000,4 hPa 0,0 l/m 0 min 0 min 0,0 UV-I 0 W/m 10,3 km/h (2 Bft)
15.05.2013 03:08 8,8 C 8,4 C 96 % 1000,4 hPa 0,0 l/m 0 min 0 min 0,0 UV-I 0 W/m 12,9 km/h (3 Bft)
15.05.2013 03:10 8,9 C 8,4 C 96 % 1000,3 hPa 0,0 l/m 0 min 0 min 0,0 UV-I 0 W/m 5,1 km/h (1 Bft)
15.05.2013 03:12 8,9 C 8,4 C 96 % 1000,3 hPa 0,0 l/m 0 min 0 min 0,0 UV-I 0 W/m 5,1 km/h (1 Bft)
15.05.2013 03:14 8,9 C 8,4 C 96 % 1000,2 hPa 0,0 l/m 0 min 0 min 0,0 UV-I 0 W/m 7,7 km/h (2 Bft)
15.05.2013 03:16 8,9 C 8,4 C 96 % 1000,3 hPa 0,0 l/m 0 min 0 min 0,0 UV-I 0 W/m 0,0 km/h (0 Bft)
15.05.2013 03:18 9,0 C 8,4 C 96 % 1000,3 hPa 0,0 l/m 0 min 0 min 0,0 UV-I 0 W/m 2,6 km/h (1 Bft)
15.05.2013 03:20 9,0 C 8,4 C 96 % 1000,2 hPa 0,0 l/m 0 min 0 min 0,0 UV-I 0 W/m 2,6 km/h (1 Bft)
15.05.2013 03:22 9,0 C 8,4 C 96 % 1000,2 hPa 0,0 l/m 0 min 0 min 0,0 UV-I 0 W/m 0,0 km/h (0 Bft)
15.05.2013 03:24 9,1 C 8,4 C 96 % 1000,2 hPa 0,0 l/m 0 min 0 min 0,0 UV-I 0 W/m 10,3 km/h (2 Bft)
15.05.2013 03:26 9,1 C 8,4 C 96 % 1000,2 hPa 0,0 l/m 0 min 0 min 0,0 UV-I 0 W/m 10,3 km/h (2 Bft)
15.05.2013 03:28 9,1 C 9,0 C 96 % 1000,2 hPa 0,0 l/m 0 min 0 min 0,0 UV-I 0 W/m 15,4 km/h (3 Bft)
15.05.2013 03:30 9,2 C 9,0 C 96 % 1000,2 hPa 0,0 l/m 0 min 0 min 0,0 UV-I 0 W/m 7,7 km/h (2 Bft)
15.05.2013 03:32 9,2 C 9,0 C 96 % 1000,2 hPa 0,0 l/m 0 min 0 min 0,0 UV-I 0 W/m 15,4 km/h (3 Bft)
15.05.2013 03:34 9,2 C 9,0 C 96 % 1000,2 hPa 0,0 l/m 0 min 0 min 0,0 UV-I 0 W/m 15,4 km/h (3 Bft)
15.05.2013 03:36 9,2 C 9,0 C 96 % 1000,1 hPa 0,0 l/m 0 min 0 min 0,0 UV-I 0 W/m 12,9 km/h (3 Bft)
15.05.2013 03:38 9,3 C 9,0 C 96 % 1000,1 hPa 0,0 l/m 0 min 0 min 0,0 UV-I 0 W/m 15,4 km/h (3 Bft)
15.05.2013 03:40 9,3 C 9,0 C 96 % 1000,2 hPa 0,0 l/m 0 min 0 min 0,0 UV-I 0 W/m 10,3 km/h (2 Bft)
15.05.2013 03:42 9,3 C 9,0 C 96 % 1000,1 hPa 0,0 l/m 0 min 0 min 0,0 UV-I 0 W/m 10,3 km/h (2 Bft)
15.05.2013 03:44 9,4 C 9,0 C 96 % 1000,1 hPa 0,0 l/m 0 min 0 min 0,0 UV-I 0 W/m 7,7 km/h (2 Bft)
15.05.2013 03:46 9,4 C 9,0 C 96 % 999,9 hPa 0,0 l/m 0 min 0 min 0,0 UV-I 0 W/m 7,7 km/h (2 Bft)
15.05.2013 03:48 9,4 C 9,0 C 96 % 999,9 hPa 0,0 l/m 0 min 0 min 0,0 UV-I 0 W/m 10,3 km/h (2 Bft)
15.05.2013 03:50 9,4 C 9,0 C 96 % 999,9 hPa 0,0 l/m 0 min 0 min 0,0 UV-I 0 W/m 5,1 km/h (1 Bft)
15.05.2013 03:52 9,4 C 9,0 C 96 % 999,9 hPa 0,0 l/m 0 min 0 min 0,0 UV-I 0 W/m 10,3 km/h (2 Bft)
15.05.2013 03:54 9,5 C 9,0 C 96 % 999,8 hPa 0,0 l/m 0 min 0 min 0,0 UV-I 0 W/m 10,3 km/h (2 Bft)
15.05.2013 03:56 9,5 C 9,0 C 96 % 999,8 hPa 0,0 l/m 0 min 0 min 0,0 UV-I 0 W/m 2,6 km/h (1 Bft)
15.05.2013 03:58 9,6 C 9,0 C 96 % 999,7 hPa 0,0 l/m 0 min 0 min 0,0 UV-I 0 W/m 7,7 km/h (2 Bft)
15.05.2013 04:00 9,6 C 9,0 C 96 % 999,7 hPa 0,0 l/m 0 min 0 min 0,0 UV-I 0 W/m 10,3 km/h (2 Bft)
15.05.2013 04:02 9,6 C 9,0 C 96 % 999,7 hPa 0,0 l/m 0 min 0 min 0,0 UV-I 0 W/m 5,1 km/h (1 Bft)
15.05.2013 04:04 9,6 C 9,0 C 95 % 999,6 hPa 0,0 l/m 0 min 0 min 0,0 UV-I 0 W/m 5,1 km/h (1 Bft)
15.05.2013 04:06 9,7 C 9,0 C 95 % 999,6 hPa 0,0 l/m 0 min 0 min 0,0 UV-I 0 W/m 10,3 km/h (2 Bft)
15.05.2013 04:08 9,7 C 9,0 C 95 % 999,5 hPa 0,0 l/m 0 min 0 min 0,0 UV-I 0 W/m 7,7 km/h (2 Bft)
15.05.2013 04:10 9,7 C 9,0 C 95 % 999,5 hPa 0,0 l/m 0 min 0 min 0,0 UV-I 0 W/m 12,9 km/h (3 Bft)
15.05.2013 04:12 9,7 C 9,0 C 95 % 999,5 hPa 0,0 l/m 0 min 0 min 0,0 UV-I 0 W/m 7,7 km/h (2 Bft)
15.05.2013 04:14 9,7 C 9,0 C 95 % 999,5 hPa 0,0 l/m 0 min 0 min 0,0 UV-I 0 W/m 0,0 km/h (0 Bft)
15.05.2013 04:16 9,8 C 9,0 C 95 % 999,4 hPa 0,0 l/m 0 min 0 min 0,0 UV-I 0 W/m 2,6 km/h (1 Bft)
15.05.2013 04:18 9,8 C 9,0 C 95 % 999,4 hPa 0,0 l/m 0 min 0 min 0,0 UV-I 0 W/m 0,0 km/h (0 Bft)
15.05.2013 04:20 9,8 C 9,0 C 95 % 999,4 hPa 0,0 l/m 0 min 0 min 0,0 UV-I 0 W/m 0,0 km/h (0 Bft)
15.05.2013 04:22 9,8 C 9,0 C 95 % 999,4 hPa 0,0 l/m 0 min 0 min 0,0 UV-I 0 W/m 7,7 km/h (2 Bft)
15.05.2013 04:24 9,8 C 9,0 C 95 % 999,4 hPa 0,0 l/m 0 min 0 min 0,0 UV-I 0 W/m 2,6 km/h (1 Bft)
15.05.2013 04:26 9,8 C 9,0 C 95 % 999,4 hPa 0,0 l/m 0 min 0 min 0,0 UV-I 0 W/m 7,7 km/h (2 Bft)
15.05.2013 04:28 9,9 C 9,0 C 94 % 999,2 hPa 0,0 l/m 0 min 0 min 0,0 UV-I 0 W/m 7,7 km/h (2 Bft)
15.05.2013 04:30 9,9 C 9,0 C 94 % 999,2 hPa 0,0 l/m 0 min 0 min 0,0 UV-I 0 W/m 7,7 km/h (2 Bft)
15.05.2013 04:32 9,9 C 9,0 C 94 % 999,3 hPa 0,0 l/m 0 min 0 min 0,0 UV-I 0 W/m 10,3 km/h (2 Bft)
15.05.2013 04:34 9,9 C 9,0 C 94 % 999,1 hPa 0,0 l/m 0 min 0 min 0,0 UV-I 0 W/m 7,7 km/h (2 Bft)
15.05.2013 04:36 9,9 C 9,0 C 94 % 999,1 hPa 0,0 l/m 0 min 0 min 0,0 UV-I 0 W/m 5,1 km/h (1 Bft)
15.05.2013 04:38 10,0 C 9,0 C 94 % 999,1 hPa 0,0 l/m 0 min 0 min 0,0 UV-I 0 W/m 7,7 km/h (2 Bft)
15.05.2013 04:40 10,0 C 9,0 C 94 % 999,0 hPa 0,0 l/m 0 min 0 min 0,0 UV-I 0 W/m 0,0 km/h (0 Bft)
15.05.2013 04:42 10,0 C 9,0 C 94 % 998,9 hPa 0,0 l/m 0 min 0 min 0,0 UV-I 0 W/m 7,7 km/h (2 Bft)
15.05.2013 04:44 10,1 C 9,0 C 94 % 998,8 hPa 0,0 l/m 0 min 0 min 0,0 UV-I 0 W/m 0,0 km/h (0 Bft)
15.05.2013 04:46 10,1 C 9,0 C 93 % 998,8 hPa 0,0 l/m 0 min 0 min 0,0 UV-I 0 W/m 0,0 km/h (0 Bft)
15.05.2013 04:48 10,1 C 9,0 C 93 % 998,9 hPa 0,0 l/m 0 min 0 min 0,0 UV-I 0 W/m 15,4 km/h (3 Bft)
15.05.2013 04:50 10,1 C 9,0 C 93 % 999,0 hPa 0,0 l/m 0 min 0 min 0,0 UV-I 0 W/m 7,7 km/h (2 Bft)
15.05.2013 04:52 10,1 C 9,0 C 93 % 998,8 hPa 0,0 l/m 0 min 0 min 0,0 UV-I 0 W/m 12,9 km/h (3 Bft)
15.05.2013 04:54 10,1 C 9,0 C 93 % 998,7 hPa 0,0 l/m 0 min 0 min 0,0 UV-I 0 W/m 10,3 km/h (2 Bft)
15.05.2013 04:56 10,1 C 9,0 C 93 % 998,7 hPa 0,0 l/m 0 min 0 min 0,0 UV-I 0 W/m 10,3 km/h (2 Bft)
15.05.2013 04:58 10,2 C 9,0 C 93 % 998,7 hPa 0,0 l/m 0 min 0 min 0,0 UV-I 0 W/m 20,6 km/h (4 Bft)
15.05.2013 05:00 10,2 C 9,0 C 93 % 998,7 hPa 0,0 l/m 0 min 0 min 0,0 UV-I 0 W/m 12,9 km/h (3 Bft)
15.05.2013 05:02 10,2 C 9,0 C 92 % 998,6 hPa 0,0 l/m 0 min 0 min 0,0 UV-I 0 W/m 15,4 km/h (3 Bft)
15.05.2013 05:04 10,2 C 9,0 C 92 % 998,6 hPa 0,0 l/m 0 min 0 min 0,0 UV-I 0 W/m 7,7 km/h (2 Bft)
15.05.2013 05:06 10,2 C 9,0 C 92 % 998,7 hPa 0,0 l/m 0 min 0 min 0,0 UV-I 0 W/m 12,9 km/h (3 Bft)
15.05.2013 05:08 10,2 C 9,0 C 92 % 998,6 hPa 0,0 l/m 0 min 0 min 0,0 UV-I 0 W/m 18,0 km/h (3 Bft)
15.05.2013 05:10 10,2 C 9,0 C 92 % 998,4 hPa 0,0 l/m 0 min 0 min 0,0 UV-I 0 W/m 15,4 km/h (3 Bft)
15.05.2013 05:12 10,2 C 9,0 C 92 % 998,3 hPa 0,0 l/m 0 min 0 min 0,0 UV-I 0 W/m 20,6 km/h (4 Bft)
15.05.2013 05:14 10,2 C 9,0 C 92 % 998,3 hPa 0,0 l/m 0 min 0 min 0,0 UV-I 0 W/m 18,0 km/h (3 Bft)
15.05.2013 05:16 10,2 C 9,0 C 92 % 998,3 hPa 0,0 l/m 0 min 0 min 0,0 UV-I 0 W/m 15,4 km/h (3 Bft)
15.05.2013 05:18 10,2 C 9,0 C 91 % 998,3 hPa 0,0 l/m 0 min 0 min 0,0 UV-I 0 W/m 18,0 km/h (3 Bft)
15.05.2013 05:20 10,2 C 9,0 C 91 % 998,2 hPa 0,0 l/m 0 min 0 min 0,0 UV-I 0 W/m 15,4 km/h (3 Bft)
15.05.2013 05:22 10,2 C 9,0 C 91 % 998,2 hPa 0,0 l/m 0 min 0 min 0,0 UV-I 0 W/m 5,1 km/h (1 Bft)
15.05.2013 05:24 10,2 C 9,0 C 91 % 998,1 hPa 0,0 l/m 0 min 0 min 0,0 UV-I 0 W/m 18,0 km/h (3 Bft)
15.05.2013 05:26 10,2 C 9,0 C 91 % 998,1 hPa 0,0 l/m 0 min 0 min 0,0 UV-I 0 W/m 12,9 km/h (3 Bft)
15.05.2013 05:28 10,2 C 9,0 C 91 % 998,2 hPa 0,0 l/m 0 min 0 min 0,0 UV-I 0 W/m 15,4 km/h (3 Bft)
15.05.2013 05:30 10,2 C 9,0 C 91 % 998,3 hPa 0,0 l/m 0 min 0 min 0,0 UV-I 0 W/m 12,9 km/h (3 Bft)
15.05.2013 05:32 10,2 C 9,0 C 91 % 998,3 hPa 0,0 l/m 0 min 0 min 0,0 UV-I 0 W/m 10,3 km/h (2 Bft)
15.05.2013 05:34 10,2 C 9,0 C 91 % 998,3 hPa 0,0 l/m 0 min 0 min 0,0 UV-I 0 W/m 12,9 km/h (3 Bft)
15.05.2013 05:36 10,2 C 9,0 C 91 % 998,2 hPa 0,0 l/m 0 min 0 min 0,0 UV-I 0 W/m 0,0 km/h (0 Bft)
15.05.2013 05:38 10,2 C 9,0 C 91 % 998,3 hPa 0,0 l/m 0 min 0 min 0,0 UV-I 0 W/m 12,9 km/h (3 Bft)
15.05.2013 05:40 10,2 C 9,0 C 91 % 998,2 hPa 0,0 l/m 0 min 0 min 0,0 UV-I 0 W/m 10,3 km/h (2 Bft)
15.05.2013 05:42 10,2 C 9,0 C 91 % 998,1 hPa 0,0 l/m 0 min 0 min 0,0 UV-I 0 W/m 15,4 km/h (3 Bft)
15.05.2013 05:44 10,2 C 9,0 C 91 % 998,1 hPa 0,0 l/m 0 min 0 min 0,0 UV-I 0 W/m 10,3 km/h (2 Bft)
15.05.2013 05:46 10,1 C 9,0 C 91 % 998,2 hPa 0,0 l/m 0 min 0 min 0,0 UV-I 5 W/m 23,2 km/h (4 Bft)
15.05.2013 05:48 10,1 C 9,0 C 91 % 998,2 hPa 0,0 l/m 0 min 0 min 0,0 UV-I 5 W/m 18,0 km/h (3 Bft)
15.05.2013 05:50 10,1 C 9,0 C 91 % 998,3 hPa 0,0 l/m 0 min 0 min 0,0 UV-I 5 W/m 15,4 km/h (3 Bft)
15.05.2013 05:52 10,1 C 9,0 C 91 % 998,2 hPa 0,0 l/m 0 min 0 min 0,0 UV-I 7 W/m 18,0 km/h (3 Bft)
15.05.2013 05:54 10,1 C 9,0 C 91 % 998,1 hPa 0,0 l/m 0 min 0 min 0,0 UV-I 7 W/m 20,6 km/h (4 Bft)
15.05.2013 05:56 10,1 C 9,0 C 91 % 998,2 hPa 0,0 l/m 0 min 0 min 0,0 UV-I 9 W/m 12,9 km/h (3 Bft)
15.05.2013 05:58 10,1 C 9,0 C 91 % 998,2 hPa 0,0 l/m 0 min 0 min 0,0 UV-I 9 W/m 15,4 km/h (3 Bft)
15.05.2013 06:00 10,1 C 9,0 C 91 % 998,2 hPa 0,0 l/m 0 min 0 min 0,0 UV-I 11 W/m 12,9 km/h (3 Bft)
15.05.2013 06:02 10,1 C 9,0 C 91 % 998,2 hPa 0,0 l/m 0 min 0 min 0,0 UV-I 11 W/m 12,9 km/h (3 Bft)
15.05.2013 06:04 10,2 C 9,0 C 91 % 998,2 hPa 0,0 l/m 0 min 0 min 0,0 UV-I 12 W/m 7,7 km/h (2 Bft)
15.05.2013 06:06 10,2 C 9,0 C 91 % 998,2 hPa 0,0 l/m 0 min 0 min 0,0 UV-I 12 W/m 12,9 km/h (3 Bft)
15.05.2013 06:08 10,2 C 9,0 C 91 % 998,2 hPa 0,0 l/m 0 min 0 min 0,0 UV-I 12 W/m 10,3 km/h (2 Bft)
15.05.2013 06:10 10,2 C 9,0 C 91 % 998,3 hPa 0,0 l/m 0 min 0 min 0,0 UV-I 12 W/m 12,9 km/h (3 Bft)
15.05.2013 06:12 10,2 C 9,0 C 91 % 998,3 hPa 0,0 l/m 0 min 0 min 0,0 UV-I 12 W/m 15,4 km/h (3 Bft)
15.05.2013 06:14 10,2 C 9,0 C 91 % 998,3 hPa 0,0 l/m 0 min 0 min 0,0 UV-I 14 W/m 18,0 km/h (3 Bft)
15.05.2013 06:16 10,2 C 9,0 C 92 % 998,2 hPa 0,0 l/m 0 min 0 min 0,0 UV-I 16 W/m 18,0 km/h (3 Bft)
15.05.2013 06:18 10,2 C 9,0 C 92 % 998,3 hPa 0,0 l/m 0 min 0 min 0,0 UV-I 18 W/m 10,3 km/h (2 Bft)
15.05.2013 06:20 10,2 C 9,0 C 92 % 998,3 hPa 0,0 l/m 0 min 0 min 0,0 UV-I 23 W/m 12,9 km/h (3 Bft)
15.05.2013 06:22 10,2 C 9,6 C 92 % 998,3 hPa 0,0 l/m 0 min 0 min 0,0 UV-I 28 W/m 18,0 km/h (3 Bft)
15.05.2013 06:24 10,2 C 9,6 C 92 % 998,2 hPa 0,0 l/m 0 min 0 min 0,0 UV-I 33 W/m 12,9 km/h (3 Bft)
15.05.2013 06:26 10,2 C 9,6 C 92 % 998,2 hPa 0,0 l/m 0 min 0 min 0,0 UV-I 40 W/m 12,9 km/h (3 Bft)
15.05.2013 06:28 10,2 C 9,6 C 92 % 998,3 hPa 0,0 l/m 0 min 0 min 0,0 UV-I 44 W/m 23,2 km/h (4 Bft)
15.05.2013 06:30 10,3 C 9,6 C 92 % 998,3 hPa 0,0 l/m 0 min 0 min 0,0 UV-I 47 W/m 15,4 km/h (3 Bft)
15.05.2013 06:32 10,3 C 9,6 C 92 % 998,3 hPa 0,0 l/m 0 min 0 min 0,0 UV-I 49 W/m 12,9 km/h (3 Bft)
15.05.2013 06:34 10,3 C 9,6 C 92 % 998,4 hPa 0,0 l/m 0 min 0 min 0,0 UV-I 49 W/m 18,0 km/h (3 Bft)
15.05.2013 06:36 10,3 C 9,6 C 92 % 998,3 hPa 0,0 l/m 0 min 0 min 0,0 UV-I 53 W/m 15,4 km/h (3 Bft)
15.05.2013 06:38 10,3 C 9,6 C 92 % 998,3 hPa 0,0 l/m 0 min 0 min 0,0 UV-I 58 W/m 20,6 km/h (4 Bft)
15.05.2013 06:40 10,3 C 9,6 C 92 % 998,3 hPa 0,0 l/m 0 min 0 min 0,0 UV-I 63 W/m 20,6 km/h (4 Bft)
15.05.2013 06:42 10,4 C 9,6 C 92 % 998,4 hPa 0,0 l/m 2 min 0 min 0,0 UV-I 74 W/m 23,2 km/h (4 Bft)
15.05.2013 06:44 10,4 C 9,6 C 92 % 998,4 hPa 0,0 l/m 2 min 0 min 0,0 UV-I 81 W/m 20,6 km/h (4 Bft)
15.05.2013 06:46 10,4 C 9,6 C 92 % 998,5 hPa 0,0 l/m 2 min 0 min 0,0 UV-I 84 W/m 18,0 km/h (3 Bft)
15.05.2013 06:48 10,4 C 10,1 C 92 % 998,5 hPa 0,0 l/m 2 min 0 min 0,0 UV-I 88 W/m 18,0 km/h (3 Bft)
15.05.2013 06:50 10,5 C 10,1 C 92 % 998,6 hPa 0,0 l/m 2 min 0 min 0,0 UV-I 88 W/m 23,2 km/h (4 Bft)
15.05.2013 06:52 10,6 C 10,1 C 92 % 998,6 hPa 0,0 l/m 2 min 0 min 0,0 UV-I 86 W/m 23,2 km/h (4 Bft)
15.05.2013 06:54 10,6 C 10,1 C 92 % 998,6 hPa 0,0 l/m 0 min 0 min 0,0 UV-I 86 W/m 20,6 km/h (4 Bft)
15.05.2013 06:56 10,6 C 10,1 C 92 % 998,5 hPa 0,0 l/m 0 min 0 min 0,0 UV-I 83 W/m 12,9 km/h (3 Bft)
15.05.2013 06:58 10,7 C 10,1 C 92 % 998,5 hPa 0,0 l/m 0 min 0 min 0,0 UV-I 84 W/m 20,6 km/h (4 Bft)
15.05.2013 07:00 10,7 C 10,1 C 92 % 998,6 hPa 0,0 l/m 0 min 0 min 0,0 UV-I 84 W/m 18,0 km/h (3 Bft)
15.05.2013 07:02 10,7 C 10,1 C 92 % 998,6 hPa 0,0 l/m 0 min 0 min 0,0 UV-I 77 W/m 20,6 km/h (4 Bft)
15.05.2013 07:04 10,8 C 10,1 C 92 % 998,6 hPa 0,0 l/m 0 min 0 min 0,0 UV-I 77 W/m 20,6 km/h (4 Bft)
15.05.2013 07:06 10,8 C 10,1 C 92 % 998,7 hPa 0,0 l/m 0 min 0 min 0,0 UV-I 79 W/m 15,4 km/h (3 Bft)
15.05.2013 07:08 10,8 C 10,1 C 92 % 998,6 hPa 0,0 l/m 0 min 0 min 0,0 UV-I 81 W/m 18,0 km/h (3 Bft)
15.05.2013 07:10 10,9 C 10,1 C 92 % 998,6 hPa 0,0 l/m 0 min 0 min 0,0 UV-I 77 W/m 20,6 km/h (4 Bft)
15.05.2013 07:12 10,9 C 10,7 C 92 % 998,6 hPa 0,0 l/m 0 min 0 min 0,0 UV-I 65 W/m 20,6 km/h (4 Bft)
15.05.2013 07:14 10,9 C 10,7 C 92 % 998,6 hPa 0,0 l/m 0 min 0 min 0,0 UV-I 58 W/m 10,3 km/h (2 Bft)
15.05.2013 07:16 10,9 C 10,7 C 92 % 998,6 hPa 0,0 l/m 0 min 0 min 0,0 UV-I 53 W/m 10,3 km/h (2 Bft)
15.05.2013 07:18 11,0 C 10,7 C 92 % 998,7 hPa 0,0 l/m 0 min 0 min 0,0 UV-I 49 W/m 10,3 km/h (2 Bft)
15.05.2013 07:20 11,0 C 10,7 C 92 % 998,7 hPa 0,0 l/m 0 min 0 min 0,0 UV-I 47 W/m 12,9 km/h (3 Bft)
15.05.2013 07:22 11,0 C 10,7 C 92 % 998,7 hPa 0,0 l/m 0 min 0 min 0,0 UV-I 49 W/m 12,9 km/h (3 Bft)
15.05.2013 07:24 11,1 C 10,7 C 92 % 998,6 hPa 0,0 l/m 0 min 0 min 0,0 UV-I 54 W/m 7,7 km/h (2 Bft)
15.05.2013 07:26 11,1 C 10,7 C 92 % 998,6 hPa 0,0 l/m 0 min 0 min 0,0 UV-I 56 W/m 0,0 km/h (0 Bft)
15.05.2013 07:28 11,1 C 10,7 C 92 % 998,6 hPa 0,0 l/m 0 min 0 min 0,0 UV-I 51 W/m 10,3 km/h (2 Bft)
15.05.2013 07:30 11,1 C 10,7 C 92 % 998,6 hPa 0,0 l/m 0 min 0 min 0,0 UV-I 44 W/m 7,7 km/h (2 Bft)
15.05.2013 07:32 11,2 C 10,7 C 92 % 998,7 hPa 0,0 l/m 0 min 0 min 0,0 UV-I 42 W/m 10,3 km/h (2 Bft)
15.05.2013 07:34 11,2 C 10,7 C 92 % 998,7 hPa 0,0 l/m 0 min 0 min 0,0 UV-I 40 W/m 12,9 km/h (3 Bft)
15.05.2013 07:36 11,2 C 10,7 C 92 % 998,8 hPa 0,0 l/m 0 min 0 min 0,0 UV-I 39 W/m 15,4 km/h (3 Bft)
15.05.2013 07:38 11,2 C 10,7 C 92 % 998,7 hPa 0,0 l/m 0 min 0 min 0,0 UV-I 37 W/m 15,4 km/h (3 Bft)
15.05.2013 07:40 11,2 C 10,7 C 92 % 998,7 hPa 0,0 l/m 0 min 0 min 0,0 UV-I 37 W/m 10,3 km/h (2 Bft)
15.05.2013 07:42 11,3 C 10,7 C 92 % 998,7 hPa 0,0 l/m 0 min 0 min 0,0 UV-I 35 W/m 7,7 km/h (2 Bft)
15.05.2013 07:44 11,3 C 10,7 C 92 % 998,6 hPa 0,0 l/m 0 min 0 min 0,0 UV-I 39 W/m 10,3 km/h (2 Bft)
15.05.2013 07:46 11,3 C 10,7 C 92 % 998,6 hPa 0,0 l/m 0 min 2 min 0,0 UV-I 44 W/m 7,7 km/h (2 Bft)
15.05.2013 07:48 11,3 C 10,7 C 92 % 998,6 hPa 0,0 l/m 0 min 2 min 0,0 UV-I 49 W/m 7,7 km/h (2 Bft)
15.05.2013 07:50 11,3 C 10,1 C 92 % 998,6 hPa 0,0 l/m 0 min 2 min 0,0 UV-I 49 W/m 15,4 km/h (3 Bft)
15.05.2013 07:52 11,3 C 10,1 C 92 % 998,7 hPa 0,0 l/m 0 min 2 min 0,0 UV-I 56 W/m 18,0 km/h (3 Bft)
15.05.2013 07:54 11,4 C 10,1 C 92 % 998,7 hPa 0,0 l/m 0 min 2 min 0,0 UV-I 74 W/m 12,9 km/h (3 Bft)
15.05.2013 07:56 11,4 C 10,1 C 92 % 998,7 hPa 0,0 l/m 0 min 2 min 0,0 UV-I 86 W/m 10,3 km/h (2 Bft)
15.05.2013 07:58 11,4 C 10,7 C 92 % 998,7 hPa 0,0 l/m 0 min 2 min 0,0 UV-I 105 W/m 10,3 km/h (2 Bft)
15.05.2013 08:00 11,4 C 10,7 C 92 % 998,7 hPa 0,0 l/m 0 min 0 min 0,0 UV-I 130 W/m 5,1 km/h (1 Bft)
15.05.2013 08:02 11,5 C 10,7 C 92 % 998,7 hPa 0,0 l/m 0 min 0 min 0,0 UV-I 146 W/m 10,3 km/h (2 Bft)
15.05.2013 08:04 11,5 C 10,7 C 93 % 998,7 hPa 0,0 l/m 0 min 0 min 0,0 UV-I 160 W/m 12,9 km/h (3 Bft)
15.05.2013 08:06 11,6 C 10,7 C 93 % 998,6 hPa 0,0 l/m 0 min 0 min 0,0 UV-I 113 W/m 10,3 km/h (2 Bft)
15.05.2013 08:08 11,6 C 10,7 C 93 % 998,7 hPa 0,0 l/m 0 min 0 min 0,0 UV-I 84 W/m 10,3 km/h (2 Bft)
15.05.2013 08:10 11,6 C 10,7 C 93 % 998,6 hPa 0,0 l/m 0 min 0 min 0,0 UV-I 79 W/m 10,3 km/h (2 Bft)
15.05.2013 08:12 11,7 C 10,7 C 93 % 998,7 hPa 0,0 l/m 0 min 0 min 0,0 UV-I 86 W/m 20,6 km/h (4 Bft)
15.05.2013 08:14 11,7 C 10,7 C 93 % 998,6 hPa 0,0 l/m 0 min 0 min 0,0 UV-I 88 W/m 7,7 km/h (2 Bft)
15.05.2013 08:16 11,7 C 10,7 C 93 % 998,6 hPa 0,0 l/m 0 min 0 min 0,0 UV-I 86 W/m 15,4 km/h (3 Bft)
15.05.2013 08:18 11,7 C 10,7 C 93 % 998,7 hPa 0,0 l/m 0 min 0 min 0,0 UV-I 113 W/m 23,2 km/h (4 Bft)
15.05.2013 08:20 11,7 C 11,2 C 93 % 998,7 hPa 0,0 l/m 0 min 0 min 0,0 UV-I 123 W/m 18,0 km/h (3 Bft)
15.05.2013 08:22 11,8 C 11,2 C 93 % 998,8 hPa 0,0 l/m 0 min 0 min 0,0 UV-I 121 W/m 15,4 km/h (3 Bft)
15.05.2013 08:24 11,8 C 11,2 C 93 % 998,8 hPa 0,0 l/m 0 min 0 min 0,0 UV-I 120 W/m 15,4 km/h (3 Bft)
15.05.2013 08:26 11,8 C 11,2 C 92 % 998,8 hPa 0,0 l/m 0 min 0 min 0,0 UV-I 114 W/m 10,3 km/h (2 Bft)
15.05.2013 08:28 11,8 C 11,8 C 92 % 998,8 hPa 0,0 l/m 0 min 0 min 0,0 UV-I 128 W/m 12,9 km/h (3 Bft)
15.05.2013 08:30 11,8 C 11,8 C 92 % 998,8 hPa 0,0 l/m 0 min 0 min 0,0 UV-I 120 W/m 7,7 km/h (2 Bft)
15.05.2013 08:32 11,9 C 11,8 C 92 % 998,8 hPa 0,0 l/m 0 min 0 min 0,0 UV-I 84 W/m 10,3 km/h (2 Bft)
15.05.2013 08:34 11,9 C 11,2 C 92 % 998,7 hPa 0,0 l/m 0 min 0 min 0,0 UV-I 53 W/m 15,4 km/h (3 Bft)
15.05.2013 08:36 11,9 C 11,2 C 92 % 998,8 hPa 0,0 l/m 0 min 0 min 0,0 UV-I 46 W/m 7,7 km/h (2 Bft)
15.05.2013 08:38 11,9 C 11,2 C 92 % 998,8 hPa 0,0 l/m 0 min 0 min 0,0 UV-I 42 W/m 10,3 km/h (2 Bft)
15.05.2013 08:40 11,9 C 11,2 C 92 % 998,8 hPa 0,0 l/m 0 min 0 min 0,0 UV-I 44 W/m 10,3 km/h (2 Bft)
15.05.2013 08:42 11,9 C 11,2 C 92 % 998,8 hPa 0,0 l/m 0 min 2 min 0,0 UV-I 51 W/m 10,3 km/h (2 Bft)
15.05.2013 08:44 11,9 C 11,2 C 92 % 998,8 hPa 0,0 l/m 0 min 0 min 0,0 UV-I 63 W/m 12,9 km/h (3 Bft)
15.05.2013 08:46 11,9 C 11,2 C 92 % 998,9 hPa 0,0 l/m 0 min 0 min 0,0 UV-I 95 W/m 18,0 km/h (3 Bft)
15.05.2013 08:48 12,0 C 11,2 C 92 % 998,9 hPa 0,0 l/m 0 min 0 min 0,0 UV-I 116 W/m 10,3 km/h (2 Bft)
15.05.2013 08:50 12,0 C 11,8 C 92 % 998,9 hPa 0,0 l/m 0 min 0 min 0,0 UV-I 144 W/m 10,3 km/h (2 Bft)
15.05.2013 08:52 12,1 C 11,8 C 92 % 999,0 hPa 0,0 l/m 0 min 0 min 0,0 UV-I 174 W/m 10,3 km/h (2 Bft)
15.05.2013 08:54 12,1 C 11,8 C 92 % 999,0 hPa 0,0 l/m 0 min 0 min 0,0 UV-I 192 W/m 10,3 km/h (2 Bft)
15.05.2013 08:56 12,1 C 12,3 C 92 % 999,1 hPa 0,0 l/m 0 min 0 min 0,0 UV-I 165 W/m 7,7 km/h (2 Bft)
15.05.2013 08:58 12,2 C 12,3 C 92 % 999,2 hPa 0,0 l/m 0 min 0 min 0,0 UV-I 142 W/m 10,3 km/h (2 Bft)
15.05.2013 09:00 12,2 C 12,3 C 92 % 999,1 hPa 0,0 l/m 0 min 0 min 0,0 UV-I 128 W/m 7,7 km/h (2 Bft)
15.05.2013 09:02 12,3 C 12,3 C 92 % 999,1 hPa 0,0 l/m 0 min 0 min 0,0 UV-I 144 W/m 12,9 km/h (3 Bft)
15.05.2013 09:04 12,3 C 12,3 C 92 % 999,2 hPa 0,0 l/m 0 min 0 min 0,0 UV-I 181 W/m 7,7 km/h (2 Bft)
15.05.2013 09:06 12,3 C 12,9 C 92 % 999,2 hPa 0,0 l/m 0 min 0 min 0,0 UV-I 186 W/m 7,7 km/h (2 Bft)
15.05.2013 09:08 12,4 C 12,9 C 92 % 999,3 hPa 0,0 l/m 0 min 0 min 0,0 UV-I 167 W/m 5,1 km/h (1 Bft)
15.05.2013 09:10 12,4 C 12,9 C 92 % 999,3 hPa 0,0 l/m 0 min 0 min 0,0 UV-I 174 W/m 0,0 km/h (0 Bft)
15.05.2013 09:12 12,5 C 12,9 C 92 % 999,3 hPa 0,0 l/m 0 min 0 min 0,0 UV-I 202 W/m 7,7 km/h (2 Bft)
15.05.2013 09:14 12,6 C 13,4 C 92 % 999,3 hPa 0,0 l/m 0 min 0 min 0,0 UV-I 239 W/m 7,7 km/h (2 Bft)
15.05.2013 09:16 12,6 C 13,4 C 92 % 999,3 hPa 0,0 l/m 0 min 0 min 0,0 UV-I 163 W/m 7,7 km/h (2 Bft)
15.05.2013 09:18 12,7 C 13,4 C 93 % 999,1 hPa 0,0 l/m 0 min 0 min 0,0 UV-I 142 W/m 10,3 km/h (2 Bft)
15.05.2013 09:20 12,8 C 13,4 C 93 % 999,1 hPa 0,0 l/m 0 min 0 min 0,0 UV-I 135 W/m 5,1 km/h (1 Bft)
15.05.2013 09:22 12,8 C 13,4 C 93 % 999,2 hPa 0,0 l/m 0 min 0 min 0,0 UV-I 116 W/m 15,4 km/h (3 Bft)
15.05.2013 09:24 12,9 C 13,4 C 92 % 999,2 hPa 0,0 l/m 0 min 0 min 0,0 UV-I 90 W/m 15,4 km/h (3 Bft)
15.05.2013 09:26 12,9 C 12,9 C 92 % 999,3 hPa 0,0 l/m 0 min 0 min 0,0 UV-I 72 W/m 7,7 km/h (2 Bft)
15.05.2013 09:28 13,0 C 12,9 C 92 % 999,4 hPa 0,0 l/m 0 min 0 min 0,0 UV-I 63 W/m 10,3 km/h (2 Bft)
15.05.2013 09:30 13,1 C 12,9 C 92 % 999,4 hPa 0,0 l/m 0 min 0 min 0,0 UV-I 70 W/m 12,9 km/h (3 Bft)
15.05.2013 09:32 13,1 C 12,9 C 91 % 999,4 hPa 0,0 l/m 0 min 0 min 0,0 UV-I 70 W/m 5,1 km/h (1 Bft)
15.05.2013 09:34 13,2 C 12,9 C 91 % 999,3 hPa 0,0 l/m 0 min 0 min 0,0 UV-I 81 W/m 0,0 km/h (0 Bft)
15.05.2013 09:36 13,2 C 12,9 C 91 % 999,3 hPa 0,0 l/m 0 min 0 min 0,0 UV-I 79 W/m 5,1 km/h (1 Bft)
15.05.2013 09:38 13,2 C 12,9 C 91 % 999,4 hPa 0,0 l/m 0 min 0 min 0,0 UV-I 81 W/m 0,0 km/h (0 Bft)
15.05.2013 09:40 13,3 C 12,9 C 91 % 999,4 hPa 0,0 l/m 0 min 0 min 0,0 UV-I 86 W/m 0,0 km/h (0 Bft)
15.05.2013 09:42 13,3 C 12,9 C 91 % 999,4 hPa 0,0 l/m 0 min 0 min 0,0 UV-I 86 W/m 0,0 km/h (0 Bft)
15.05.2013 09:44 13,3 C 12,9 C 90 % 999,4 hPa 0,0 l/m 0 min 0 min 0,0 UV-I 109 W/m 0,0 km/h (0 Bft)
15.05.2013 09:46 13,3 C 12,9 C 90 % 999,3 hPa 0,0 l/m 0 min 0 min 0,0 UV-I 127 W/m 0,0 km/h (0 Bft)
15.05.2013 09:48 13,4 C 13,4 C 90 % 999,3 hPa 0,0 l/m 0 min 0 min 0,0 UV-I 241 W/m 0,0 km/h (0 Bft)
15.05.2013 09:50 13,4 C 14,0 C 90 % 999,1 hPa 0,0 l/m 0 min 0 min 0,5 UV-I 276 W/m 10,3 km/h (2 Bft)
15.05.2013 09:52 13,5 C 14,0 C 90 % 999,2 hPa 0,0 l/m 0 min 0 min 0,0 UV-I 151 W/m 5,1 km/h (1 Bft)
15.05.2013 09:54 13,6 C 14,0 C 90 % 999,2 hPa 0,0 l/m 0 min 0 min 0,0 UV-I 134 W/m 0,0 km/h (0 Bft)
15.05.2013 09:56 13,6 C 14,0 C 90 % 999,2 hPa 0,0 l/m 0 min 0 min 0,0 UV-I 127 W/m 0,0 km/h (0 Bft)
15.05.2013 09:58 13,7 C 14,0 C 89 % 999,2 hPa 0,0 l/m 0 min 0 min 0,0 UV-I 123 W/m 0,0 km/h (0 Bft)
15.05.2013 10:00 13,7 C 14,0 C 89 % 999,3 hPa 0,0 l/m 0 min 0 min 0,0 UV-I 127 W/m 0,0 km/h (0 Bft)
15.05.2013 10:02 13,8 C 14,0 C 89 % 999,4 hPa 0,0 l/m 0 min 0 min 0,0 UV-I 118 W/m 0,0 km/h (0 Bft)
15.05.2013 10:04 13,8 C 14,0 C 89 % 999,3 hPa 0,0 l/m 0 min 0 min 0,0 UV-I 104 W/m 10,3 km/h (2 Bft)
15.05.2013 10:06 13,9 C 13,4 C 88 % 999,4 hPa 0,0 l/m 0 min 0 min 0,0 UV-I 91 W/m 10,3 km/h (2 Bft)
15.05.2013 10:08 13,9 C 13,4 C 88 % 999,3 hPa 0,0 l/m 0 min 0 min 0,0 UV-I 88 W/m 0,0 km/h (0 Bft)
15.05.2013 10:10 14,0 C 13,4 C 87 % 999,2 hPa 0,0 l/m 0 min 0 min 0,0 UV-I 105 W/m 0,0 km/h (0 Bft)
15.05.2013 10:12 14,0 C 13,4 C 87 % 999,1 hPa 0,0 l/m 0 min 0 min 0,0 UV-I 134 W/m 0,0 km/h (0 Bft)
15.05.2013 10:14 14,0 C 13,4 C 87 % 999,2 hPa 0,0 l/m 0 min 0 min 0,0 UV-I 137 W/m 2,6 km/h (1 Bft)
15.05.2013 10:16 14,0 C 13,4 C 87 % 999,2 hPa 0,0 l/m 0 min 0 min 0,0 UV-I 153 W/m 0,0 km/h (0 Bft)
15.05.2013 10:18 14,0 C 13,4 C 86 % 999,2 hPa 0,0 l/m 0 min 0 min 0,0 UV-I 148 W/m 0,0 km/h (0 Bft)
15.05.2013 10:20 14,1 C 13,4 C 86 % 999,2 hPa 0,0 l/m 0 min 0 min 0,0 UV-I 100 W/m 10,3 km/h (2 Bft)
15.05.2013 10:22 14,1 C 13,4 C 86 % 999,2 hPa 0,0 l/m 0 min 0 min 0,0 UV-I 79 W/m 5,1 km/h (1 Bft)
15.05.2013 10:24 14,2 C 13,4 C 85 % 999,2 hPa 0,0 l/m 0 min 0 min 0,0 UV-I 62 W/m 5,1 km/h (1 Bft)
15.05.2013 10:26 14,2 C 13,4 C 85 % 999,2 hPa 0,0 l/m 0 min 0 min 0,0 UV-I 60 W/m 0,0 km/h (0 Bft)
15.05.2013 10:28 14,2 C 13,4 C 85 % 999,2 hPa 0,0 l/m 0 min 0 min 0,0 UV-I 63 W/m 5,1 km/h (1 Bft)
15.05.2013 10:30 14,2 C 12,9 C 85 % 999,2 hPa 0,0 l/m 0 min 0 min 0,0 UV-I 63 W/m 10,3 km/h (2 Bft)
15.05.2013 10:32 14,2 C 12,9 C 85 % 999,2 hPa 0,0 l/m 0 min 0 min 0,0 UV-I 72 W/m 0,0 km/h (0 Bft)
15.05.2013 10:34 14,2 C 12,9 C 85 % 999,2 hPa 0,0 l/m 0 min 0 min 0,0 UV-I 137 W/m 10,3 km/h (2 Bft)
15.05.2013 10:36 14,2 C 13,4 C 84 % 999,2 hPa 0,0 l/m 0 min 0 min 0,8 UV-I 237 W/m 0,0 km/h (0 Bft)
15.05.2013 10:38 14,2 C 14,0 C 84 % 999,0 hPa 0,0 l/m 0 min 0 min 1,0 UV-I 236 W/m 7,7 km/h (2 Bft)
15.05.2013 10:40 14,2 C 14,0 C 84 % 999,1 hPa 0,0 l/m 0 min 0 min 0,0 UV-I 165 W/m 5,1 km/h (1 Bft)
15.05.2013 10:42 14,3 C 14,0 C 84 % 999,2 hPa 0,0 l/m 0 min 0 min 0,0 UV-I 130 W/m 2,6 km/h (1 Bft)
15.05.2013 10:44 14,3 C 14,0 C 84 % 999,2 hPa 0,0 l/m 0 min 0 min 0,0 UV-I 79 W/m 0,0 km/h (0 Bft)
15.05.2013 10:46 14,3 C 13,4 C 84 % 999,4 hPa 0,0 l/m 0 min 0 min 0,0 UV-I 60 W/m 10,3 km/h (2 Bft)
15.05.2013 10:48 14,3 C 13,4 C 84 % 999,4 hPa 0,0 l/m 0 min 0 min 0,0 UV-I 47 W/m 0,0 km/h (0 Bft)
15.05.2013 10:50 14,3 C 13,4 C 84 % 999,4 hPa 0,0 l/m 0 min 0 min 0,0 UV-I 37 W/m 0,0 km/h (0 Bft)
15.05.2013 10:52 14,3 C 12,9 C 84 % 999,5 hPa 0,0 l/m 0 min 0 min 0,0 UV-I 30 W/m 2,6 km/h (1 Bft)
15.05.2013 10:54 14,3 C 12,9 C 83 % 999,6 hPa 0,0 l/m 0 min 0 min 0,0 UV-I 26 W/m 10,3 km/h (2 Bft)
15.05.2013 10:56 14,3 C 12,9 C 83 % 999,7 hPa 0,0 l/m 0 min 2 min 0,0 UV-I 32 W/m 5,1 km/h (1 Bft)
15.05.2013 10:58 14,2 C 12,9 C 83 % 999,7 hPa 0,0 l/m 0 min 2 min 0,0 UV-I 39 W/m 7,7 km/h (2 Bft)
15.05.2013 11:00 14,2 C 12,3 C 83 % 999,9 hPa 0,0 l/m 0 min 2 min 0,0 UV-I 40 W/m 7,7 km/h (2 Bft)
15.05.2013 11:02 14,2 C 11,8 C 83 % 1000,1 hPa 0,0 l/m 0 min 2 min 0,0 UV-I 46 W/m 15,4 km/h (3 Bft)
15.05.2013 11:04 14,2 C 11,2 C 84 % 1000,2 hPa 0,2 l/m 0 min 2 min 0,0 UV-I 53 W/m 15,4 km/h (3 Bft)
15.05.2013 11:06 14,0 C 10,7 C 84 % 1000,2 hPa 0,0 l/m 0 min 2 min 0,0 UV-I 62 W/m 10,3 km/h (2 Bft)
15.05.2013 11:08 14,0 C 11,2 C 85 % 1000,3 hPa 0,2 l/m 0 min 2 min 0,0 UV-I 62 W/m 0,0 km/h (0 Bft)
15.05.2013 11:10 14,0 C 10,7 C 85 % 1000,4 hPa 0,0 l/m 0 min 2 min 0,0 UV-I 60 W/m 12,9 km/h (3 Bft)
15.05.2013 11:12 13,9 C 11,2 C 86 % 1000,3 hPa 0,2 l/m 0 min 2 min 0,0 UV-I 62 W/m 5,1 km/h (1 Bft)
15.05.2013 11:14 13,8 C 11,2 C 86 % 1000,2 hPa 0,0 l/m 0 min 2 min 0,0 UV-I 62 W/m 0,0 km/h (0 Bft)
15.05.2013 11:16 13,8 C 11,2 C 86 % 1000,1 hPa 0,0 l/m 0 min 2 min 0,0 UV-I 77 W/m 0,0 km/h (0 Bft)
15.05.2013 11:18 13,8 C 11,2 C 87 % 1000,2 hPa 0,2 l/m 0 min 2 min 0,0 UV-I 102 W/m 0,0 km/h (0 Bft)
15.05.2013 11:20 13,8 C 11,2 C 87 % 1000,2 hPa 0,2 l/m 0 min 2 min 0,0 UV-I 113 W/m 0,0 km/h (0 Bft)
15.05.2013 11:22 13,7 C 11,2 C 87 % 1000,2 hPa 0,0 l/m 0 min 2 min 0,0 UV-I 113 W/m 7,7 km/h (2 Bft)
15.05.2013 11:24 13,7 C 11,2 C 88 % 1000,2 hPa 0,0 l/m 0 min 2 min 0,0 UV-I 98 W/m 7,7 km/h (2 Bft)
15.05.2013 11:26 13,6 C 11,2 C 88 % 1000,2 hPa 0,0 l/m 0 min 2 min 0,0 UV-I 113 W/m 0,0 km/h (0 Bft)
15.05.2013 11:28 13,6 C 11,2 C 88 % 1000,0 hPa 0,0 l/m 0 min 2 min 0,0 UV-I 130 W/m 5,1 km/h (1 Bft)
15.05.2013 11:30 13,6 C 11,2 C 88 % 999,9 hPa 0,0 l/m 0 min 2 min 0,0 UV-I 141 W/m 5,1 km/h (1 Bft)
15.05.2013 11:32 13,5 C 11,8 C 89 % 999,9 hPa 0,0 l/m 0 min 2 min 0,5 UV-I 178 W/m 5,1 km/h (1 Bft)
15.05.2013 11:34 13,5 C 11,8 C 89 % 999,9 hPa 0,0 l/m 0 min 2 min 0,5 UV-I 186 W/m 5,1 km/h (1 Bft)
15.05.2013 11:36 13,4 C 11,8 C 90 % 999,9 hPa 0,0 l/m 0 min 2 min 0,6 UV-I 185 W/m 2,6 km/h (1 Bft)
15.05.2013 11:38 13,4 C 11,8 C 90 % 999,9 hPa 0,0 l/m 0 min 2 min 0,7 UV-I 195 W/m 0,0 km/h (0 Bft)
15.05.2013 11:40 13,4 C 12,3 C 90 % 999,9 hPa 0,0 l/m 0 min 0 min 0,8 UV-I 206 W/m 2,6 km/h (1 Bft)
15.05.2013 11:42 13,4 C 12,3 C 90 % 999,8 hPa 0,0 l/m 0 min 0 min 0,8 UV-I 213 W/m 0,0 km/h (0 Bft)
15.05.2013 11:44 13,5 C 12,3 C 91 % 999,7 hPa 0,0 l/m 0 min 0 min 0,7 UV-I 207 W/m 0,0 km/h (0 Bft)
15.05.2013 11:46 13,5 C 12,3 C 91 % 999,8 hPa 0,0 l/m 0 min 0 min 0,6 UV-I 185 W/m 0,0 km/h (0 Bft)
15.05.2013 11:48 13,6 C 12,3 C 91 % 999,7 hPa 0,0 l/m 0 min 0 min 0,0 UV-I 151 W/m 0,0 km/h (0 Bft)
15.05.2013 11:50 13,6 C 12,3 C 91 % 999,7 hPa 0,0 l/m 0 min 0 min 0,0 UV-I 153 W/m 0,0 km/h (0 Bft)
15.05.2013 11:52 13,6 C 12,3 C 91 % 999,8 hPa 0,0 l/m 0 min 0 min 0,5 UV-I 188 W/m 0,0 km/h (0 Bft)
15.05.2013 11:54 13,6 C 12,9 C 92 % 999,8 hPa 0,0 l/m 0 min 0 min 1,0 UV-I 250 W/m 0,0 km/h (0 Bft)
15.05.2013 11:56 13,7 C 12,9 C 92 % 999,7 hPa 0,0 l/m 0 min 2 min 0,7 UV-I 204 W/m 5,1 km/h (1 Bft)
15.05.2013 11:58 13,7 C 12,9 C 92 % 999,7 hPa 0,0 l/m 0 min 2 min 0,5 UV-I 172 W/m 5,1 km/h (1 Bft)
15.05.2013 12:00 13,8 C 12,9 C 92 % 999,8 hPa 0,0 l/m 0 min 0 min 0,5 UV-I 176 W/m 2,6 km/h (1 Bft)
15.05.2013 12:02 13,8 C 12,9 C 92 % 999,8 hPa 0,0 l/m 0 min 0 min 0,0 UV-I 158 W/m 0,0 km/h (0 Bft)
15.05.2013 12:04 13,8 C 12,9 C 92 % 999,7 hPa 0,0 l/m 0 min 2 min 0,0 UV-I 148 W/m 0,0 km/h (0 Bft)
15.05.2013 12:06 13,9 C 12,9 C 93 % 999,6 hPa 0,0 l/m 0 min 0 min 0,0 UV-I 128 W/m 2,6 km/h (1 Bft)
15.05.2013 12:08 13,9 C 12,3 C 93 % 999,7 hPa 0,0 l/m 0 min 0 min 0,0 UV-I 121 W/m 0,0 km/h (0 Bft)
15.05.2013 12:10 13,9 C 12,3 C 93 % 999,7 hPa 0,0 l/m 0 min 2 min 0,0 UV-I 121 W/m 10,3 km/h (2 Bft)
15.05.2013 12:12 13,9 C 12,3 C 93 % 999,8 hPa 0,0 l/m 0 min 0 min 0,0 UV-I 125 W/m 5,1 km/h (1 Bft)
15.05.2013 12:14 13,9 C 12,3 C 93 % 999,8 hPa 0,0 l/m 0 min 0 min 0,0 UV-I 123 W/m 2,6 km/h (1 Bft)
15.05.2013 12:16 13,9 C 12,3 C 93 % 999,7 hPa 0,0 l/m 0 min 0 min 0,0 UV-I 118 W/m 5,1 km/h (1 Bft)
15.05.2013 12:18 13,9 C 12,3 C 92 % 999,7 hPa 0,0 l/m 0 min 0 min 0,0 UV-I 137 W/m 0,0 km/h (0 Bft)
15.05.2013 12:20 13,9 C 12,3 C 92 % 999,7 hPa 0,0 l/m 0 min 0 min 0,0 UV-I 127 W/m 0,0 km/h (0 Bft)
15.05.2013 12:22 13,9 C 12,3 C 92 % 999,9 hPa 0,0 l/m 0 min 0 min 0,0 UV-I 105 W/m 0,0 km/h (0 Bft)
15.05.2013 12:24 13,9 C 12,3 C 92 % 999,8 hPa 0,0 l/m 0 min 0 min 0,0 UV-I 102 W/m 0,0 km/h (0 Bft)
15.05.2013 12:26 14,0 C 12,3 C 92 % 999,7 hPa 0,0 l/m 0 min 0 min 0,0 UV-I 90 W/m 5,1 km/h (1 Bft)
15.05.2013 12:28 13,9 C 12,3 C 92 % 999,8 hPa 0,0 l/m 0 min 0 min 0,0 UV-I 77 W/m 10,3 km/h (2 Bft)
15.05.2013 12:30 13,9 C 11,8 C 92 % 999,8 hPa 0,0 l/m 0 min 0 min 0,0 UV-I 84 W/m 7,7 km/h (2 Bft)
15.05.2013 12:32 13,8 C 11,8 C 92 % 999,9 hPa 0,0 l/m 0 min 0 min 0,0 UV-I 93 W/m 0,0 km/h (0 Bft)
15.05.2013 12:34 13,8 C 11,8 C 92 % 999,8 hPa 0,0 l/m 0 min 0 min 0,0 UV-I 86 W/m 7,7 km/h (2 Bft)
15.05.2013 12:36 13,8 C 11,8 C 92 % 999,7 hPa 0,0 l/m 0 min 0 min 0,0 UV-I 95 W/m 2,6 km/h (1 Bft)
15.05.2013 12:38 13,8 C 11,8 C 91 % 999,7 hPa 0,0 l/m 0 min 0 min 0,0 UV-I 104 W/m 2,6 km/h (1 Bft)
15.05.2013 12:40 13,8 C 11,8 C 91 % 999,7 hPa 0,0 l/m 0 min 0 min 0,0 UV-I 111 W/m 0,0 km/h (0 Bft)
15.05.2013 12:42 13,8 C 12,3 C 91 % 999,8 hPa 0,0 l/m 0 min 0 min 0,0 UV-I 111 W/m 5,1 km/h (1 Bft)
15.05.2013 12:44 13,8 C 12,3 C 91 % 999,7 hPa 0,0 l/m 0 min 0 min 0,0 UV-I 127 W/m 0,0 km/h (0 Bft)
15.05.2013 12:46 13,8 C 12,3 C 91 % 999,8 hPa 0,0 l/m 0 min 0 min 0,0 UV-I 93 W/m 0,0 km/h (0 Bft)
15.05.2013 12:48 13,8 C 12,3 C 91 % 999,8 hPa 0,0 l/m 0 min 0 min 0,0 UV-I 91 W/m 7,7 km/h (2 Bft)
15.05.2013 12:50 13,9 C 12,3 C 92 % 999,8 hPa 0,0 l/m 0 min 0 min 0,0 UV-I 100 W/m 0,0 km/h (0 Bft)
15.05.2013 12:52 13,9 C 12,3 C 92 % 999,9 hPa 0,0 l/m 0 min 0 min 0,0 UV-I 102 W/m 0,0 km/h (0 Bft)
15.05.2013 12:54 13,9 C 12,3 C 92 % 999,8 hPa 0,0 l/m 0 min 0 min 0,0 UV-I 113 W/m 5,1 km/h (1 Bft)
15.05.2013 12:56 13,9 C 12,3 C 92 % 999,7 hPa 0,0 l/m 0 min 0 min 0,0 UV-I 118 W/m 5,1 km/h (1 Bft)
15.05.2013 12:58 13,9 C 12,3 C 92 % 999,8 hPa 0,0 l/m 0 min 0 min 0,0 UV-I 149 W/m 2,6 km/h (1 Bft)
15.05.2013 13:00 13,9 C 12,3 C 92 % 999,8 hPa 0,0 l/m 0 min 0 min 0,6 UV-I 179 W/m 0,0 km/h (0 Bft)
15.05.2013 13:02 13,9 C 12,9 C 91 % 999,7 hPa 0,0 l/m 0 min 0 min 0,8 UV-I 213 W/m 0,0 km/h (0 Bft)
15.05.2013 13:04 13,9 C 12,9 C 91 % 999,8 hPa 0,0 l/m 0 min 0 min 0,9 UV-I 213 W/m 0,0 km/h (0 Bft)
15.05.2013 13:06 14,0 C 12,9 C 91 % 999,8 hPa 0,0 l/m 0 min 0 min 0,9 UV-I 223 W/m 7,7 km/h (2 Bft)
15.05.2013 13:08 14,0 C 12,9 C 91 % 999,9 hPa 0,0 l/m 0 min 0 min 1,1 UV-I 260 W/m 12,9 km/h (3 Bft)
15.05.2013 13:10 14,0 C 13,4 C 91 % 999,8 hPa 0,0 l/m 0 min 0 min 1,4 UV-I 288 W/m 7,7 km/h (2 Bft)
15.05.2013 13:12 14,2 C 13,4 C 92 % 999,8 hPa 0,0 l/m 0 min 0 min 1,2 UV-I 267 W/m 7,7 km/h (2 Bft)
15.05.2013 13:14 14,4 C 12,9 C 91 % 999,8 hPa 0,0 l/m 0 min 0 min 1,0 UV-I 232 W/m 0,0 km/h (0 Bft)
15.05.2013 13:16 14,4 C 12,9 C 90 % 999,8 hPa 0,0 l/m 0 min 0 min 0,8 UV-I 181 W/m 10,3 km/h (2 Bft)
15.05.2013 13:18 14,4 C 12,9 C 89 % 999,9 hPa 0,0 l/m 0 min 0 min 0,0 UV-I 148 W/m 7,7 km/h (2 Bft)
15.05.2013 13:20 14,4 C 12,9 C 88 % 999,9 hPa 0,0 l/m 0 min 0 min 0,6 UV-I 174 W/m 0,0 km/h (0 Bft)
15.05.2013 13:22 14,5 C 12,9 C 88 % 999,8 hPa 0,0 l/m 0 min 0 min 1,0 UV-I 271 W/m 10,3 km/h (2 Bft)
15.05.2013 13:24 14,6 C 13,4 C 89 % 999,7 hPa 0,0 l/m 0 min 0 min 1,4 UV-I 301 W/m 5,1 km/h (1 Bft)
15.05.2013 13:26 14,7 C 14,0 C 89 % 999,8 hPa 0,0 l/m 0 min 0 min 1,1 UV-I 283 W/m 0,0 km/h (0 Bft)
15.05.2013 13:28 14,8 C 14,0 C 89 % 999,8 hPa 0,0 l/m 0 min 0 min 1,0 UV-I 285 W/m 7,7 km/h (2 Bft)
15.05.2013 13:30 14,9 C 14,0 C 88 % 999,8 hPa 0,0 l/m 0 min 0 min 1,4 UV-I 309 W/m 0,0 km/h (0 Bft)
15.05.2013 13:32 15,1 C 14,0 C 89 % 999,8 hPa 0,0 l/m 0 min 0 min 1,4 UV-I 306 W/m 5,1 km/h (1 Bft)
15.05.2013 13:34 15,1 C 14,0 C 87 % 999,8 hPa 0,0 l/m 0 min 0 min 1,3 UV-I 260 W/m 15,4 km/h (3 Bft)
15.05.2013 13:36 15,1 C 13,4 C 87 % 999,8 hPa 0,0 l/m 0 min 0 min 1,0 UV-I 246 W/m 7,7 km/h (2 Bft)
15.05.2013 13:38 15,1 C 13,4 C 86 % 999,9 hPa 0,0 l/m 0 min 0 min 0,9 UV-I 225 W/m 7,7 km/h (2 Bft)
15.05.2013 13:40 15,1 C 13,4 C 86 % 999,7 hPa 0,0 l/m 0 min 0 min 0,6 UV-I 183 W/m 10,3 km/h (2 Bft)
15.05.2013 13:42 15,1 C 12,9 C 86 % 999,8 hPa 0,0 l/m 0 min 0 min 0,0 UV-I 155 W/m 15,4 km/h (3 Bft)
15.05.2013 13:44 14,9 C 12,9 C 85 % 999,8 hPa 0,0 l/m 0 min 0 min 0,5 UV-I 160 W/m 12,9 km/h (3 Bft)
15.05.2013 13:46 14,9 C 12,9 C 85 % 999,8 hPa 0,0 l/m 0 min 0 min 0,0 UV-I 158 W/m 10,3 km/h (2 Bft)
15.05.2013 13:48 14,9 C 12,9 C 85 % 999,9 hPa 0,0 l/m 0 min 0 min 0,5 UV-I 172 W/m 7,7 km/h (2 Bft)
15.05.2013 13:50 14,9 C 12,9 C 85 % 999,8 hPa 0,0 l/m 0 min 0 min 0,5 UV-I 176 W/m 0,0 km/h (0 Bft)
15.05.2013 13:52 14,9 C 12,9 C 85 % 999,7 hPa 0,0 l/m 0 min 0 min 0,0 UV-I 149 W/m 0,0 km/h (0 Bft)
15.05.2013 13:54 14,9 C 12,9 C 85 % 999,7 hPa 0,0 l/m 0 min 0 min 0,0 UV-I 139 W/m 2,6 km/h (1 Bft)
15.05.2013 13:56 14,9 C 12,9 C 85 % 999,8 hPa 0,0 l/m 0 min 0 min 0,0 UV-I 137 W/m 5,1 km/h (1 Bft)
15.05.2013 13:58 14,9 C 12,9 C 85 % 999,7 hPa 0,0 l/m 0 min 0 min 0,0 UV-I 123 W/m 5,1 km/h (1 Bft)
15.05.2013 14:00 14,9 C 12,9 C 85 % 999,8 hPa 0,0 l/m 0 min 0 min 0,0 UV-I 98 W/m 0,0 km/h (0 Bft)
15.05.2013 14:02 14,9 C 12,9 C 85 % 999,9 hPa 0,0 l/m 0 min 0 min 0,0 UV-I 113 W/m 0,0 km/h (0 Bft)
15.05.2013 14:04 14,9 C 12,9 C 85 % 999,9 hPa 0,0 l/m 0 min 0 min 0,0 UV-I 104 W/m 0,0 km/h (0 Bft)
15.05.2013 14:06 15,0 C 12,9 C 85 % 999,9 hPa 0,0 l/m 0 min 0 min 0,0 UV-I 120 W/m 0,0 km/h (0 Bft)
15.05.2013 14:08 15,0 C 13,4 C 85 % 999,9 hPa 0,0 l/m 0 min 0 min 0,0 UV-I 167 W/m 0,0 km/h (0 Bft)
15.05.2013 14:10 15,0 C 13,4 C 85 % 999,9 hPa 0,0 l/m 0 min 0 min 0,0 UV-I 134 W/m 0,0 km/h (0 Bft)
15.05.2013 14:12 15,0 C 13,4 C 85 % 999,9 hPa 0,0 l/m 0 min 0 min 0,0 UV-I 100 W/m 2,6 km/h (1 Bft)
15.05.2013 14:14 15,0 C 13,4 C 85 % 999,9 hPa 0,0 l/m 0 min 2 min 0,0 UV-I 81 W/m 5,1 km/h (1 Bft)
15.05.2013 14:16 15,0 C 12,9 C 85 % 999,9 hPa 0,0 l/m 0 min 2 min 0,0 UV-I 93 W/m 0,0 km/h (0 Bft)
15.05.2013 14:18 15,0 C 12,9 C 85 % 999,9 hPa 0,0 l/m 0 min 0 min 0,0 UV-I 100 W/m 0,0 km/h (0 Bft)
15.05.2013 14:20 15,0 C 13,4 C 85 % 999,9 hPa 0,0 l/m 0 min 0 min 0,0 UV-I 114 W/m 0,0 km/h (0 Bft)
15.05.2013 14:22 15,0 C 13,4 C 85 % 999,9 hPa 0,0 l/m 0 min 0 min 0,0 UV-I 125 W/m 0,0 km/h (0 Bft)
15.05.2013 14:24 15,1 C 13,4 C 85 % 999,9 hPa 0,0 l/m 0 min 2 min 0,0 UV-I 125 W/m 0,0 km/h (0 Bft)
15.05.2013 14:26 15,1 C 13,4 C 85 % 999,9 hPa 0,0 l/m 0 min 2 min 0,0 UV-I 98 W/m 0,0 km/h (0 Bft)
15.05.2013 14:28 15,1 C 13,4 C 85 % 1000,0 hPa 0,0 l/m 0 min 2 min 0,0 UV-I 86 W/m 5,1 km/h (1 Bft)
15.05.2013 14:30 15,0 C 12,9 C 85 % 1000,0 hPa 0,0 l/m 0 min 0 min 0,0 UV-I 86 W/m 0,0 km/h (0 Bft)
15.05.2013 14:32 15,0 C 12,9 C 85 % 1000,0 hPa 0,0 l/m 0 min 0 min 0,0 UV-I 84 W/m 0,0 km/h (0 Bft)
15.05.2013 14:34 14,9 C 12,9 C 84 % 1000,0 hPa 0,0 l/m 0 min 0 min 0,0 UV-I 81 W/m 0,0 km/h (0 Bft)
15.05.2013 14:36 14,9 C 12,9 C 84 % 1000,0 hPa 0,0 l/m 0 min 0 min 0,0 UV-I 79 W/m 0,0 km/h (0 Bft)
15.05.2013 14:38 14,9 C 12,9 C 84 % 1000,0 hPa 0,0 l/m 0 min 0 min 0,0 UV-I 74 W/m 0,0 km/h (0 Bft)
15.05.2013 14:40 14,9 C 12,9 C 84 % 999,9 hPa 0,0 l/m 0 min 0 min 0,0 UV-I 69 W/m 0,0 km/h (0 Bft)
15.05.2013 14:42 14,8 C 12,9 C 83 % 1000,0 hPa 0,0 l/m 0 min 0 min 0,0 UV-I 65 W/m 0,0 km/h (0 Bft)
15.05.2013 14:44 14,8 C 12,9 C 83 % 1000,0 hPa 0,0 l/m 0 min 0 min 0,0 UV-I 51 W/m 0,0 km/h (0 Bft)
15.05.2013 14:46 14,8 C 12,9 C 83 % 1000,1 hPa 0,0 l/m 0 min 0 min 0,0 UV-I 44 W/m 0,0 km/h (0 Bft)
15.05.2013 14:48 14,8 C 12,9 C 83 % 1000,1 hPa 0,0 l/m 0 min 0 min 0,0 UV-I 42 W/m 0,0 km/h (0 Bft)
15.05.2013 14:50 14,8 C 12,9 C 84 % 1000,2 hPa 0,0 l/m 0 min 0 min 0,0 UV-I 42 W/m 0,0 km/h (0 Bft)
15.05.2013 14:52 14,8 C 12,9 C 84 % 1000,2 hPa 0,0 l/m 0 min 0 min 0,0 UV-I 46 W/m 0,0 km/h (0 Bft)
15.05.2013 14:54 14,7 C 12,9 C 84 % 1000,3 hPa 0,0 l/m 0 min 0 min 0,0 UV-I 54 W/m 0,0 km/h (0 Bft)
15.05.2013 14:56 14,7 C 12,9 C 84 % 1000,2 hPa 0,0 l/m 0 min 0 min 0,0 UV-I 63 W/m 0,0 km/h (0 Bft)
15.05.2013 14:58 14,7 C 12,9 C 84 % 1000,2 hPa 0,0 l/m 0 min 0 min 0,0 UV-I 54 W/m 0,0 km/h (0 Bft)
15.05.2013 15:00 14,7 C 12,9 C 84 % 1000,2 hPa 0,0 l/m 0 min 0 min 0,0 UV-I 49 W/m 0,0 km/h (0 Bft)
15.05.2013 15:02 14,7 C 12,9 C 84 % 1000,2 hPa 0,0 l/m 0 min 0 min 0,0 UV-I 42 W/m 0,0 km/h (0 Bft)
15.05.2013 15:04 14,7 C 12,9 C 84 % 1000,3 hPa 0,0 l/m 0 min 0 min 0,0 UV-I 40 W/m 0,0 km/h (0 Bft)
15.05.2013 15:06 14,7 C 12,9 C 84 % 1000,3 hPa 0,0 l/m 0 min 0 min 0,0 UV-I 35 W/m 0,0 km/h (0 Bft)
15.05.2013 15:08 14,7 C 12,9 C 84 % 1000,3 hPa 0,0 l/m 0 min 0 min 0,0 UV-I 33 W/m 0,0 km/h (0 Bft)
15.05.2013 15:10 14,7 C 12,9 C 84 % 1000,3 hPa 0,0 l/m 0 min 0 min 0,0 UV-I 35 W/m 0,0 km/h (0 Bft)
15.05.2013 15:12 14,7 C 12,9 C 85 % 1000,3 hPa 0,0 l/m 0 min 0 min 0,0 UV-I 35 W/m 0,0 km/h (0 Bft)
15.05.2013 15:14 14,6 C 12,9 C 85 % 1000,4 hPa 0,0 l/m 0 min 0 min 0,0 UV-I 30 W/m 0,0 km/h (0 Bft)
15.05.2013 15:16 14,6 C 12,3 C 85 % 1000,5 hPa 0,0 l/m 0 min 0 min 0,0 UV-I 28 W/m 0,0 km/h (0 Bft)
15.05.2013 15:18 14,6 C 12,3 C 85 % 1000,5 hPa 0,0 l/m 0 min 0 min 0,0 UV-I 28 W/m 0,0 km/h (0 Bft)
15.05.2013 15:20 14,6 C 12,3 C 85 % 1000,5 hPa 0,0 l/m 0 min 0 min 0,0 UV-I 37 W/m 5,1 km/h (1 Bft)
15.05.2013 15:22 14,6 C 12,3 C 85 % 1000,5 hPa 0,0 l/m 0 min 0 min 0,0 UV-I 44 W/m 0,0 km/h (0 Bft)
15.05.2013 15:24 14,5 C 12,3 C 84 % 1000,5 hPa 0,0 l/m 0 min 0 min 0,0 UV-I 51 W/m 10,3 km/h (2 Bft)
15.05.2013 15:26 14,5 C 12,3 C 84 % 1000,5 hPa 0,0 l/m 0 min 0 min 0,0 UV-I 70 W/m 5,1 km/h (1 Bft)
15.05.2013 15:28 14,4 C 12,9 C 84 % 1000,6 hPa 0,0 l/m 0 min 0 min 0,0 UV-I 102 W/m 0,0 km/h (0 Bft)
15.05.2013 15:30 14,4 C 12,9 C 84 % 1000,6 hPa 0,0 l/m 0 min 0 min 0,0 UV-I 128 W/m 0,0 km/h (0 Bft)
15.05.2013 15:32 14,4 C 12,9 C 84 % 1000,6 hPa 0,0 l/m 0 min 0 min 0,0 UV-I 114 W/m 5,1 km/h (1 Bft)
15.05.2013 15:34 14,4 C 12,9 C 83 % 1000,6 hPa 0,0 l/m 0 min 0 min 0,0 UV-I 102 W/m 0,0 km/h (0 Bft)
15.05.2013 15:36 14,3 C 12,9 C 83 % 1000,7 hPa 0,0 l/m 0 min 0 min 0,0 UV-I 100 W/m 5,1 km/h (1 Bft)
15.05.2013 15:38 14,3 C 12,9 C 83 % 1000,7 hPa 0,0 l/m 0 min 0 min 0,0 UV-I 98 W/m 7,7 km/h (2 Bft)
15.05.2013 15:40 14,3 C 12,9 C 82 % 1000,8 hPa 0,0 l/m 0 min 0 min 0,0 UV-I 91 W/m 2,6 km/h (1 Bft)
15.05.2013 15:42 14,3 C 12,9 C 82 % 1000,8 hPa 0,0 l/m 0 min 0 min 0,0 UV-I 84 W/m 0,0 km/h (0 Bft)
15.05.2013 15:44 14,3 C 12,9 C 82 % 1000,7 hPa 0,0 l/m 0 min 0 min 0,0 UV-I 84 W/m 0,0 km/h (0 Bft)
15.05.2013 15:46 14,2 C 12,9 C 82 % 1000,7 hPa 0,0 l/m 0 min 0 min 0,0 UV-I 79 W/m 0,0 km/h (0 Bft)
15.05.2013 15:48 14,2 C 12,9 C 82 % 1000,8 hPa 0,0 l/m 0 min 0 min 0,0 UV-I 65 W/m 0,0 km/h (0 Bft)
15.05.2013 15:50 14,2 C 12,9 C 81 % 1000,8 hPa 0,0 l/m 0 min 0 min 0,0 UV-I 67 W/m 5,1 km/h (1 Bft)
15.05.2013 15:52 14,2 C 12,9 C 81 % 1000,8 hPa 0,0 l/m 0 min 0 min 0,0 UV-I 79 W/m 5,1 km/h (1 Bft)
15.05.2013 15:54 14,2 C 12,9 C 81 % 1000,7 hPa 0,0 l/m 0 min 0 min 0,0 UV-I 95 W/m 0,0 km/h (0 Bft)
15.05.2013 15:56 14,2 C 12,9 C 81 % 1000,7 hPa 0,0 l/m 0 min 0 min 0,0 UV-I 97 W/m 10,3 km/h (2 Bft)
15.05.2013 15:58 14,1 C 12,9 C 81 % 1000,7 hPa 0,0 l/m 0 min 0 min 0,0 UV-I 95 W/m 5,1 km/h (1 Bft)
15.05.2013 16:00 14,1 C 12,9 C 81 % 1000,8 hPa 0,0 l/m 0 min 0 min 0,0 UV-I 98 W/m 0,0 km/h (0 Bft)
15.05.2013 16:02 14,1 C 12,9 C 81 % 1000,7 hPa 0,0 l/m 0 min 0 min 0,0 UV-I 97 W/m 5,1 km/h (1 Bft)
15.05.2013 16:04 14,2 C 12,9 C 81 % 1000,7 hPa 0,0 l/m 0 min 0 min 0,0 UV-I 90 W/m 0,0 km/h (0 Bft)
15.05.2013 16:06 14,1 C 12,9 C 81 % 1000,8 hPa 0,0 l/m 0 min 0 min 0,0 UV-I 83 W/m 0,0 km/h (0 Bft)
15.05.2013 16:08 14,1 C 12,9 C 81 % 1000,7 hPa 0,0 l/m 0 min 0 min 0,0 UV-I 84 W/m 0,0 km/h (0 Bft)
15.05.2013 16:10 14,1 C 12,9 C 81 % 1000,8 hPa 0,0 l/m 0 min 0 min 0,0 UV-I 86 W/m 10,3 km/h (2 Bft)
15.05.2013 16:12 14,1 C 12,9 C 80 % 1000,8 hPa 0,0 l/m 0 min 0 min 0,0 UV-I 79 W/m 2,6 km/h (1 Bft)
15.05.2013 16:14 14,1 C 12,9 C 80 % 1000,8 hPa 0,0 l/m 0 min 0 min 0,0 UV-I 77 W/m 5,1 km/h (1 Bft)
15.05.2013 16:16 14,1 C 12,9 C 80 % 1000,7 hPa 0,0 l/m 0 min 0 min 0,0 UV-I 84 W/m 2,6 km/h (1 Bft)
15.05.2013 16:18 14,1 C 12,9 C 80 % 1000,7 hPa 0,0 l/m 0 min 0 min 0,0 UV-I 105 W/m 0,0 km/h (0 Bft)
15.05.2013 16:20 14,1 C 12,9 C 80 % 1000,7 hPa 0,0 l/m 0 min 2 min 0,0 UV-I 111 W/m 2,6 km/h (1 Bft)
15.05.2013 16:22 14,1 C 12,9 C 80 % 1000,7 hPa 0,0 l/m 0 min 2 min 0,0 UV-I 109 W/m 0,0 km/h (0 Bft)
15.05.2013 16:24 14,1 C 12,9 C 80 % 1000,7 hPa 0,0 l/m 0 min 0 min 0,0 UV-I 116 W/m 0,0 km/h (0 Bft)
15.05.2013 16:26 14,1 C 13,4 C 80 % 1000,7 hPa 0,0 l/m 0 min 0 min 0,0 UV-I 121 W/m 10,3 km/h (2 Bft)
15.05.2013 16:28 14,1 C 13,4 C 80 % 1000,7 hPa 0,0 l/m 0 min 0 min 0,0 UV-I 120 W/m 0,0 km/h (0 Bft)
15.05.2013 16:30 14,1 C 13,4 C 80 % 1000,7 hPa 0,0 l/m 0 min 2 min 0,0 UV-I 120 W/m 0,0 km/h (0 Bft)
15.05.2013 16:32 14,2 C 13,4 C 80 % 1000,6 hPa 0,0 l/m 0 min 2 min 0,0 UV-I 120 W/m 0,0 km/h (0 Bft)
15.05.2013 16:34 14,2 C 12,9 C 81 % 1000,7 hPa 0,0 l/m 0 min 0 min 0,0 UV-I 123 W/m 7,7 km/h (2 Bft)
15.05.2013 16:36 14,2 C 12,9 C 81 % 1000,7 hPa 0,0 l/m 0 min 0 min 0,0 UV-I 137 W/m 5,1 km/h (1 Bft)
15.05.2013 16:38 14,2 C 13,4 C 81 % 1000,7 hPa 0,0 l/m 0 min 0 min 0,0 UV-I 135 W/m 0,0 km/h (0 Bft)
15.05.2013 16:40 14,2 C 13,4 C 80 % 1000,8 hPa 0,0 l/m 0 min 0 min 0,0 UV-I 134 W/m 5,1 km/h (1 Bft)
15.05.2013 16:42 14,2 C 13,4 C 80 % 1000,8 hPa 0,0 l/m 0 min 0 min 0,0 UV-I 148 W/m 12,9 km/h (3 Bft)
15.05.2013 16:44 14,2 C 13,4 C 80 % 1000,8 hPa 0,0 l/m 0 min 0 min 0,0 UV-I 174 W/m 7,7 km/h (2 Bft)
15.05.2013 16:46 14,3 C 14,0 C 80 % 1000,8 hPa 0,0 l/m 0 min 0 min 0,0 UV-I 237 W/m 7,7 km/h (2 Bft)
15.05.2013 16:48 14,3 C 14,0 C 80 % 1000,8 hPa 0,0 l/m 0 min 2 min 0,5 UV-I 237 W/m 5,1 km/h (1 Bft)
15.05.2013 16:50 14,3 C 14,0 C 80 % 1000,8 hPa 0,0 l/m 0 min 0 min 0,0 UV-I 229 W/m 0,0 km/h (0 Bft)
15.05.2013 16:52 14,4 C 14,6 C 80 % 1000,8 hPa 0,0 l/m 0 min 0 min 0,5 UV-I 225 W/m 0,0 km/h (0 Bft)
15.05.2013 16:54 14,4 C 14,6 C 80 % 1000,8 hPa 0,0 l/m 0 min 0 min 0,5 UV-I 218 W/m 10,3 km/h (2 Bft)
15.05.2013 16:56 14,4 C 14,6 C 79 % 1000,8 hPa 0,0 l/m 0 min 0 min 0,0 UV-I 213 W/m 10,3 km/h (2 Bft)
15.05.2013 16:58 14,6 C 14,6 C 79 % 1000,8 hPa 0,0 l/m 0 min 0 min 0,0 UV-I 206 W/m 2,6 km/h (1 Bft)
15.05.2013 17:00 14,6 C 14,6 C 79 % 1000,9 hPa 0,0 l/m 0 min 0 min 0,0 UV-I 207 W/m 0,0 km/h (0 Bft)
15.05.2013 17:02 14,6 C 14,6 C 79 % 1000,8 hPa 0,0 l/m 0 min 0 min 0,0 UV-I 207 W/m 12,9 km/h (3 Bft)
15.05.2013 17:04 14,7 C 14,6 C 78 % 1000,8 hPa 0,0 l/m 0 min 0 min 0,0 UV-I 197 W/m 10,3 km/h (2 Bft)
15.05.2013 17:06 14,7 C 14,6 C 78 % 1000,7 hPa 0,0 l/m 0 min 0 min 0,0 UV-I 197 W/m 10,3 km/h (2 Bft)
15.05.2013 17:08 14,8 C 14,6 C 78 % 1000,7 hPa 0,0 l/m 0 min 0 min 0,0 UV-I 190 W/m 7,7 km/h (2 Bft)
15.05.2013 17:10 14,8 C 14,6 C 77 % 1000,8 hPa 0,0 l/m 0 min 0 min 0,0 UV-I 181 W/m 5,1 km/h (1 Bft)
15.05.2013 17:12 14,8 C 14,6 C 78 % 1000,8 hPa 0,0 l/m 0 min 0 min 0,0 UV-I 174 W/m 0,0 km/h (0 Bft)
15.05.2013 17:14 14,9 C 14,6 C 78 % 1000,7 hPa 0,0 l/m 0 min 0 min 0,0 UV-I 165 W/m 7,7 km/h (2 Bft)
15.05.2013 17:16 14,9 C 14,6 C 77 % 1000,8 hPa 0,0 l/m 0 min 0 min 0,0 UV-I 155 W/m 12,9 km/h (3 Bft)
15.05.2013 17:18 14,9 C 14,0 C 77 % 1000,8 hPa 0,0 l/m 0 min 0 min 0,0 UV-I 141 W/m 15,4 km/h (3 Bft)
15.05.2013 17:20 14,9 C 14,0 C 76 % 1000,8 hPa 0,0 l/m 0 min 0 min 0,0 UV-I 137 W/m 7,7 km/h (2 Bft)
15.05.2013 17:22 14,9 C 14,0 C 76 % 1000,8 hPa 0,0 l/m 0 min 0 min 0,0 UV-I 134 W/m 0,0 km/h (0 Bft)
15.05.2013 17:24 15,0 C 14,0 C 77 % 1000,8 hPa 0,0 l/m 0 min 0 min 0,0 UV-I 135 W/m 2,6 km/h (1 Bft)
15.05.2013 17:26 15,0 C 14,0 C 76 % 1000,7 hPa 0,0 l/m 0 min 0 min 0,0 UV-I 134 W/m 2,6 km/h (1 Bft)
15.05.2013 17:28 15,1 C 14,0 C 76 % 1000,7 hPa 0,0 l/m 0 min 0 min 0,0 UV-I 134 W/m 2,6 km/h (1 Bft)
15.05.2013 17:30 15,1 C 14,0 C 76 % 1000,7 hPa 0,0 l/m 0 min 0 min 0,0 UV-I 132 W/m 7,7 km/h (2 Bft)
15.05.2013 17:32 15,1 C 14,0 C 76 % 1000,7 hPa 0,0 l/m 0 min 2 min 0,0 UV-I 123 W/m 5,1 km/h (1 Bft)
15.05.2013 17:34 15,1 C 14,0 C 76 % 1000,7 hPa 0,0 l/m 0 min 2 min 0,0 UV-I 116 W/m 5,1 km/h (1 Bft)
15.05.2013 17:36 15,1 C 14,0 C 76 % 1000,7 hPa 0,0 l/m 0 min 2 min 0,0 UV-I 109 W/m 5,1 km/h (1 Bft)
15.05.2013 17:38 15,1 C 13,4 C 76 % 1000,8 hPa 0,0 l/m 0 min 2 min 0,0 UV-I 102 W/m 7,7 km/h (2 Bft)
15.05.2013 17:40 15,1 C 13,4 C 76 % 1000,7 hPa 0,0 l/m 0 min 2 min 0,0 UV-I 95 W/m 0,0 km/h (0 Bft)
15.05.2013 17:42 15,1 C 13,4 C 76 % 1000,7 hPa 0,0 l/m 0 min 2 min 0,0 UV-I 90 W/m 0,0 km/h (0 Bft)
15.05.2013 17:44 15,1 C 13,4 C 77 % 1000,7 hPa 0,0 l/m 0 min 2 min 0,0 UV-I 86 W/m 7,7 km/h (2 Bft)
15.05.2013 17:46 15,1 C 12,9 C 77 % 1000,7 hPa 0,0 l/m 0 min 2 min 0,0 UV-I 84 W/m 7,7 km/h (2 Bft)
15.05.2013 17:48 15,1 C 12,9 C 77 % 1000,7 hPa 0,0 l/m 0 min 2 min 0,0 UV-I 84 W/m 0,0 km/h (0 Bft)
15.05.2013 17:50 15,1 C 12,9 C 77 % 1000,7 hPa 0,0 l/m 0 min 2 min 0,0 UV-I 86 W/m 7,7 km/h (2 Bft)
15.05.2013 17:52 15,0 C 12,9 C 77 % 1000,7 hPa 0,0 l/m 0 min 2 min 0,0 UV-I 90 W/m 10,3 km/h (2 Bft)
15.05.2013 17:54 14,9 C 12,9 C 77 % 1000,7 hPa 0,0 l/m 0 min 2 min 0,0 UV-I 95 W/m 7,7 km/h (2 Bft)
15.05.2013 17:56 14,9 C 12,9 C 78 % 1000,8 hPa 0,0 l/m 0 min 2 min 0,0 UV-I 102 W/m 2,6 km/h (1 Bft)
15.05.2013 17:58 14,9 C 12,9 C 78 % 1000,7 hPa 0,0 l/m 0 min 0 min 0,0 UV-I 113 W/m 2,6 km/h (1 Bft)
15.05.2013 18:00 14,9 C 13,4 C 78 % 1000,7 hPa 0,0 l/m 0 min 0 min 0,0 UV-I 128 W/m 0,0 km/h (0 Bft)
15.05.2013 18:02 14,9 C 13,4 C 78 % 1000,7 hPa 0,0 l/m 0 min 0 min 0,0 UV-I 149 W/m 0,0 km/h (0 Bft)
15.05.2013 18:04 14,9 C 13,4 C 79 % 1000,7 hPa 0,0 l/m 0 min 0 min 0,0 UV-I 155 W/m 0,0 km/h (0 Bft)
15.05.2013 18:06 14,9 C 14,0 C 79 % 1000,7 hPa 0,0 l/m 0 min 0 min 0,0 UV-I 153 W/m 2,6 km/h (1 Bft)
15.05.2013 18:08 14,9 C 14,0 C 79 % 1000,7 hPa 0,0 l/m 0 min 0 min 0,0 UV-I 146 W/m 5,1 km/h (1 Bft)
15.05.2013 18:10 14,9 C 14,0 C 79 % 1000,8 hPa 0,0 l/m 0 min 0 min 0,0 UV-I 139 W/m 0,0 km/h (0 Bft)
15.05.2013 18:12 14,9 C 14,0 C 79 % 1000,7 hPa 0,0 l/m 0 min 0 min 0,0 UV-I 137 W/m 0,0 km/h (0 Bft)
15.05.2013 18:14 14,9 C 14,0 C 80 % 1000,7 hPa 0,0 l/m 0 min 0 min 0,0 UV-I 144 W/m 0,0 km/h (0 Bft)
15.05.2013 18:16 14,9 C 14,6 C 80 % 1000,7 hPa 0,0 l/m 0 min 0 min 0,0 UV-I 148 W/m 7,7 km/h (2 Bft)
15.05.2013 18:18 14,9 C 14,6 C 80 % 1000,7 hPa 0,0 l/m 0 min 0 min 0,0 UV-I 149 W/m 5,1 km/h (1 Bft)
15.05.2013 18:20 14,9 C 14,6 C 80 % 1000,7 hPa 0,0 l/m 0 min 0 min 0,0 UV-I 153 W/m 7,7 km/h (2 Bft)
15.05.2013 18:22 14,9 C 14,6 C 79 % 1000,7 hPa 0,0 l/m 0 min 0 min 0,0 UV-I 149 W/m 12,9 km/h (3 Bft)
15.05.2013 18:24 15,0 C 14,6 C 80 % 1000,7 hPa 0,0 l/m 0 min 0 min 0,0 UV-I 144 W/m 0,0 km/h (0 Bft)
15.05.2013 18:26 15,0 C 14,6 C 79 % 1000,7 hPa 0,0 l/m 0 min 0 min 0,0 UV-I 137 W/m 10,3 km/h (2 Bft)
15.05.2013 18:28 15,1 C 14,6 C 79 % 1000,7 hPa 0,0 l/m 0 min 0 min 0,0 UV-I 137 W/m 10,3 km/h (2 Bft)
15.05.2013 18:30 15,1 C 14,6 C 79 % 1000,7 hPa 0,0 l/m 0 min 0 min 0,0 UV-I 135 W/m 10,3 km/h (2 Bft)
15.05.2013 18:32 15,1 C 14,6 C 79 % 1000,7 hPa 0,0 l/m 0 min 0 min 0,0 UV-I 132 W/m 0,0 km/h (0 Bft)
15.05.2013 18:34 15,1 C 14,6 C 79 % 1000,7 hPa 0,0 l/m 0 min 0 min 0,0 UV-I 128 W/m 0,0 km/h (0 Bft)
15.05.2013 18:36 15,1 C 14,6 C 79 % 1000,8 hPa 0,0 l/m 0 min 2 min 0,0 UV-I 123 W/m 7,7 km/h (2 Bft)
15.05.2013 18:38 15,1 C 14,6 C 79 % 1000,7 hPa 0,0 l/m 0 min 0 min 0,0 UV-I 116 W/m 15,4 km/h (3 Bft)
15.05.2013 18:40 15,2 C 14,6 C 78 % 1000,7 hPa 0,0 l/m 0 min 0 min 0,0 UV-I 111 W/m 12,9 km/h (3 Bft)
15.05.2013 18:42 15,2 C 14,6 C 78 % 1000,7 hPa 0,0 l/m 0 min 0 min 0,0 UV-I 109 W/m 0,0 km/h (0 Bft)
15.05.2013 18:44 15,2 C 14,6 C 78 % 1000,7 hPa 0,0 l/m 0 min 0 min 0,0 UV-I 113 W/m 10,3 km/h (2 Bft)
15.05.2013 18:46 15,2 C 14,0 C 78 % 1000,8 hPa 0,0 l/m 0 min 0 min 0,0 UV-I 118 W/m 12,9 km/h (3 Bft)
15.05.2013 18:48 15,2 C 14,6 C 77 % 1000,7 hPa 0,0 l/m 0 min 0 min 0,0 UV-I 120 W/m 7,7 km/h (2 Bft)
15.05.2013 18:50 15,2 C 14,6 C 78 % 1000,7 hPa 0,0 l/m 0 min 0 min 0,0 UV-I 114 W/m 0,0 km/h (0 Bft)
15.05.2013 18:52 15,2 C 14,6 C 77 % 1000,8 hPa 0,0 l/m 0 min 0 min 0,0 UV-I 111 W/m 2,6 km/h (1 Bft)
15.05.2013 18:54 15,2 C 14,6 C 77 % 1000,8 hPa 0,0 l/m 0 min 0 min 0,0 UV-I 111 W/m 7,7 km/h (2 Bft)
15.05.2013 18:56 15,2 C 14,0 C 77 % 1000,7 hPa 0,0 l/m 0 min 0 min 0,0 UV-I 118 W/m 7,7 km/h (2 Bft)
15.05.2013 18:58 15,3 C 14,6 C 77 % 1000,7 hPa 0,0 l/m 0 min 0 min 0,0 UV-I 125 W/m 12,9 km/h (3 Bft)
15.05.2013 19:00 15,3 C 14,6 C 76 % 1000,8 hPa 0,0 l/m 0 min 0 min 0,0 UV-I 130 W/m 15,4 km/h (3 Bft)
15.05.2013 19:02 15,3 C 14,6 C 76 % 1000,7 hPa 0,0 l/m 0 min 0 min 0,0 UV-I 141 W/m 18,0 km/h (3 Bft)
15.05.2013 19:04 15,3 C 14,6 C 76 % 1000,8 hPa 0,0 l/m 0 min 0 min 0,0 UV-I 155 W/m 15,4 km/h (3 Bft)
15.05.2013 19:06 15,3 C 14,6 C 75 % 1000,8 hPa 0,0 l/m 2 min 0 min 0,0 UV-I 174 W/m 12,9 km/h (3 Bft)
15.05.2013 19:08 15,3 C 14,6 C 75 % 1000,8 hPa 0,0 l/m 2 min 0 min 0,0 UV-I 193 W/m 7,7 km/h (2 Bft)
15.05.2013 19:10 15,3 C 15,1 C 75 % 1000,8 hPa 0,0 l/m 2 min 0 min 0,0 UV-I 197 W/m 10,3 km/h (2 Bft)
15.05.2013 19:12 15,4 C 15,1 C 74 % 1000,7 hPa 0,0 l/m 2 min 0 min 0,0 UV-I 192 W/m 10,3 km/h (2 Bft)
15.05.2013 19:14 15,4 C 15,1 C 74 % 1000,7 hPa 0,0 l/m 2 min 0 min 0,0 UV-I 167 W/m 18,0 km/h (3 Bft)
15.05.2013 19:16 15,5 C 15,1 C 74 % 1000,7 hPa 0,0 l/m 0 min 0 min 0,0 UV-I 158 W/m 10,3 km/h (2 Bft)
15.05.2013 19:18 15,6 C 15,1 C 73 % 1000,7 hPa 0,0 l/m 0 min 0 min 0,0 UV-I 141 W/m 15,4 km/h (3 Bft)
15.05.2013 19:20 15,6 C 14,6 C 73 % 1000,7 hPa 0,0 l/m 0 min 0 min 0,0 UV-I 84 W/m 18,0 km/h (3 Bft)
15.05.2013 19:22 15,6 C 14,6 C 72 % 1000,7 hPa 0,0 l/m 0 min 0 min 0,0 UV-I 74 W/m 10,3 km/h (2 Bft)
15.05.2013 19:24 15,7 C 14,6 C 72 % 1000,7 hPa 0,0 l/m 0 min 0 min 0,0 UV-I 62 W/m 7,7 km/h (2 Bft)
15.05.2013 19:26 15,7 C 14,0 C 72 % 1000,8 hPa 0,0 l/m 0 min 0 min 0,0 UV-I 58 W/m 5,1 km/h (1 Bft)
15.05.2013 19:28 15,7 C 14,0 C 72 % 1000,8 hPa 0,0 l/m 0 min 0 min 0,0 UV-I 54 W/m 5,1 km/h (1 Bft)
15.05.2013 19:30 15,7 C 14,0 C 72 % 1000,8 hPa 0,0 l/m 0 min 0 min 0,0 UV-I 51 W/m 10,3 km/h (2 Bft)
15.05.2013 19:32 15,7 C 14,0 C 72 % 1000,7 hPa 0,0 l/m 0 min 0 min 0,0 UV-I 47 W/m 5,1 km/h (1 Bft)
15.05.2013 19:34 15,7 C 14,0 C 72 % 1000,8 hPa 0,0 l/m 0 min 0 min 0,0 UV-I 40 W/m 7,7 km/h (2 Bft)
15.05.2013 19:36 15,6 C 13,4 C 72 % 1000,8 hPa 0,0 l/m 0 min 0 min 0,0 UV-I 37 W/m 0,0 km/h (0 Bft)
15.05.2013 19:38 15,6 C 13,4 C 72 % 1000,8 hPa 0,0 l/m 0 min 0 min 0,0 UV-I 35 W/m 5,1 km/h (1 Bft)
15.05.2013 19:40 15,6 C 13,4 C 72 % 1000,8 hPa 0,0 l/m 0 min 0 min 0,0 UV-I 37 W/m 10,3 km/h (2 Bft)
15.05.2013 19:42 15,5 C 13,4 C 72 % 1000,9 hPa 0,0 l/m 0 min 0 min 0,0 UV-I 35 W/m 12,9 km/h (3 Bft)
15.05.2013 19:44 15,4 C 13,4 C 72 % 1000,8 hPa 0,0 l/m 0 min 0 min 0,0 UV-I 35 W/m 7,7 km/h (2 Bft)
15.05.2013 19:46 15,4 C 13,4 C 72 % 1000,7 hPa 0,0 l/m 0 min 0 min 0,0 UV-I 37 W/m 7,7 km/h (2 Bft)
15.05.2013 19:48 15,4 C 13,4 C 72 % 1000,8 hPa 0,0 l/m 0 min 0 min 0,0 UV-I 40 W/m 23,2 km/h (4 Bft)
15.05.2013 19:50 15,3 C 12,9 C 72 % 1000,7 hPa 0,0 l/m 0 min 0 min 0,0 UV-I 42 W/m 7,7 km/h (2 Bft)
15.05.2013 19:52 15,3 C 12,9 C 72 % 1000,7 hPa 0,0 l/m 0 min 0 min 0,0 UV-I 39 W/m 7,7 km/h (2 Bft)
15.05.2013 19:54 15,3 C 12,9 C 72 % 1000,8 hPa 0,0 l/m 0 min 0 min 0,0 UV-I 37 W/m 5,1 km/h (1 Bft)
15.05.2013 19:56 15,2 C 12,9 C 73 % 1000,8 hPa 0,0 l/m 0 min 0 min 0,0 UV-I 39 W/m 0,0 km/h (0 Bft)
15.05.2013 19:58 15,2 C 12,9 C 73 % 1000,8 hPa 0,0 l/m 0 min 0 min 0,0 UV-I 40 W/m 7,7 km/h (2 Bft)
15.05.2013 20:00 15,2 C 12,9 C 73 % 1000,8 hPa 0,0 l/m 0 min 0 min 0,0 UV-I 42 W/m 7,7 km/h (2 Bft)
15.05.2013 20:02 15,1 C 12,9 C 73 % 1000,8 hPa 0,0 l/m 0 min 0 min 0,0 UV-I 42 W/m 2,6 km/h (1 Bft)
15.05.2013 20:04 15,1 C 12,9 C 73 % 1000,8 hPa 0,0 l/m 0 min 0 min 0,0 UV-I 44 W/m 0,0 km/h (0 Bft)
15.05.2013 20:06 15,1 C 12,9 C 73 % 1000,8 hPa 0,0 l/m 0 min 0 min 0,0 UV-I 47 W/m 5,1 km/h (1 Bft)
15.05.2013 20:08 15,0 C 12,9 C 73 % 1000,8 hPa 0,0 l/m 0 min 0 min 0,0 UV-I 49 W/m 10,3 km/h (2 Bft)
15.05.2013 20:10 15,0 C 12,9 C 74 % 1000,8 hPa 0,0 l/m 0 min 0 min 0,0 UV-I 49 W/m 0,0 km/h (0 Bft)
15.05.2013 20:12 15,0 C 12,9 C 74 % 1000,9 hPa 0,0 l/m 0 min 0 min 0,0 UV-I 44 W/m 0,0 km/h (0 Bft)
15.05.2013 20:14 15,0 C 12,9 C 74 % 1000,9 hPa 0,0 l/m 0 min 0 min 0,0 UV-I 42 W/m 0,0 km/h (0 Bft)
15.05.2013 20:16 14,9 C 12,9 C 74 % 1000,9 hPa 0,0 l/m 0 min 0 min 0,0 UV-I 40 W/m 0,0 km/h (0 Bft)
15.05.2013 20:18 14,9 C 12,9 C 74 % 1000,9 hPa 0,0 l/m 0 min 0 min 0,0 UV-I 40 W/m 0,0 km/h (0 Bft)
15.05.2013 20:20 14,9 C 12,9 C 74 % 1000,8 hPa 0,0 l/m 0 min 0 min 0,0 UV-I 39 W/m 0,0 km/h (0 Bft)
15.05.2013 20:22 14,9 C 12,9 C 74 % 1000,8 hPa 0,0 l/m 0 min 0 min 0,0 UV-I 35 W/m 2,6 km/h (1 Bft)
15.05.2013 20:24 14,9 C 12,9 C 74 % 1000,9 hPa 0,0 l/m 0 min 0 min 0,0 UV-I 30 W/m 0,0 km/h (0 Bft)
15.05.2013 20:26 14,8 C 12,9 C 74 % 1000,9 hPa 0,0 l/m 0 min 0 min 0,0 UV-I 28 W/m 0,0 km/h (0 Bft)
15.05.2013 20:28 14,8 C 12,9 C 75 % 1001,0 hPa 0,0 l/m 0 min 0 min 0,0 UV-I 26 W/m 0,0 km/h (0 Bft)
15.05.2013 20:30 14,8 C 12,9 C 75 % 1001,0 hPa 0,0 l/m 0 min 0 min 0,0 UV-I 23 W/m 10,3 km/h (2 Bft)
15.05.2013 20:32 14,8 C 12,3 C 75 % 1001,0 hPa 0,0 l/m 0 min 0 min 0,0 UV-I 23 W/m 0,0 km/h (0 Bft)
15.05.2013 20:34 14,8 C 12,3 C 75 % 1001,0 hPa 0,0 l/m 0 min 0 min 0,0 UV-I 23 W/m 7,7 km/h (2 Bft)
15.05.2013 20:36 14,7 C 12,3 C 75 % 1001,0 hPa 0,0 l/m 0 min 0 min 0,0 UV-I 21 W/m 7,7 km/h (2 Bft)
15.05.2013 20:38 14,7 C 12,9 C 75 % 1001,0 hPa 0,0 l/m 0 min 0 min 0,0 UV-I 21 W/m 7,7 km/h (2 Bft)
15.05.2013 20:40 14,7 C 12,9 C 75 % 1001,0 hPa 0,0 l/m 0 min 0 min 0,0 UV-I 21 W/m 0,0 km/h (0 Bft)
15.05.2013 20:42 14,6 C 12,9 C 75 % 1001,0 hPa 0,0 l/m 0 min 0 min 0,0 UV-I 21 W/m 7,7 km/h (2 Bft)
15.05.2013 20:44 14,6 C 12,3 C 75 % 1000,9 hPa 0,0 l/m 0 min 0 min 0,0 UV-I 23 W/m 0,0 km/h (0 Bft)
15.05.2013 20:46 14,6 C 12,3 C 75 % 1001,0 hPa 0,0 l/m 0 min 0 min 0,0 UV-I 21 W/m 0,0 km/h (0 Bft)
15.05.2013 20:48 14,6 C 12,3 C 75 % 1001,0 hPa 0,0 l/m 0 min 0 min 0,0 UV-I 21 W/m 0,0 km/h (0 Bft)
15.05.2013 20:50 14,6 C 12,3 C 75 % 1001,1 hPa 0,0 l/m 0 min 0 min 0,0 UV-I 19 W/m 0,0 km/h (0 Bft)
15.05.2013 20:52 14,5 C 12,3 C 75 % 1001,1 hPa 0,0 l/m 0 min 0 min 0,0 UV-I 18 W/m 0,0 km/h (0 Bft)
15.05.2013 20:54 14,5 C 12,3 C 75 % 1001,1 hPa 0,0 l/m 0 min 0 min 0,0 UV-I 16 W/m 0,0 km/h (0 Bft)
15.05.2013 20:56 14,5 C 12,3 C 76 % 1001,2 hPa 0,0 l/m 0 min 0 min 0,0 UV-I 16 W/m 0,0 km/h (0 Bft)
15.05.2013 20:58 14,4 C 12,3 C 75 % 1001,2 hPa 0,0 l/m 0 min 0 min 0,0 UV-I 14 W/m 5,1 km/h (1 Bft)
15.05.2013 21:00 14,4 C 12,3 C 75 % 1001,2 hPa 0,0 l/m 0 min 0 min 0,0 UV-I 12 W/m 0,0 km/h (0 Bft)
15.05.2013 21:02 14,4 C 12,3 C 76 % 1001,2 hPa 0,0 l/m 0 min 0 min 0,0 UV-I 12 W/m 0,0 km/h (0 Bft)
15.05.2013 21:04 14,3 C 11,8 C 76 % 1001,3 hPa 0,0 l/m 0 min 0 min 0,0 UV-I 11 W/m 0,0 km/h (0 Bft)
15.05.2013 21:06 14,3 C 11,8 C 76 % 1001,3 hPa 0,0 l/m 0 min 0 min 0,0 UV-I 9 W/m 0,0 km/h (0 Bft)
15.05.2013 21:08 14,3 C 11,8 C 76 % 1001,4 hPa 0,0 l/m 0 min 0 min 0,0 UV-I 7 W/m 0,0 km/h (0 Bft)
15.05.2013 21:10 14,3 C 11,8 C 76 % 1001,4 hPa 0,0 l/m 0 min 0 min 0,0 UV-I 7 W/m 2,6 km/h (1 Bft)
15.05.2013 21:12 14,2 C 11,8 C 76 % 1001,4 hPa 0,0 l/m 0 min 0 min 0,0 UV-I 7 W/m 0,0 km/h (0 Bft)
15.05.2013 21:14 14,2 C 11,8 C 76 % 1001,4 hPa 0,0 l/m 0 min 0 min 0,0 UV-I 7 W/m 0,0 km/h (0 Bft)
15.05.2013 21:16 14,2 C 11,8 C 76 % 1001,5 hPa 0,0 l/m 0 min 0 min 0,0 UV-I 5 W/m 0,0 km/h (0 Bft)
15.05.2013 21:18 14,1 C 11,2 C 76 % 1001,5 hPa 0,0 l/m 0 min 0 min 0,0 UV-I 5 W/m 0,0 km/h (0 Bft)
15.05.2013 21:20 14,1 C 11,2 C 76 % 1001,6 hPa 0,0 l/m 0 min 0 min 0,0 UV-I 5 W/m 0,0 km/h (0 Bft)
15.05.2013 21:22 14,0 C 11,2 C 76 % 1001,6 hPa 0,0 l/m 0 min 0 min 0,0 UV-I 0 W/m 0,0 km/h (0 Bft)
15.05.2013 21:24 14,0 C 11,2 C 77 % 1001,6 hPa 0,0 l/m 0 min 0 min 0,0 UV-I 0 W/m 0,0 km/h (0 Bft)
15.05.2013 21:26 14,0 C 11,2 C 77 % 1001,6 hPa 0,0 l/m 0 min 0 min 0,0 UV-I 0 W/m 0,0 km/h (0 Bft)
15.05.2013 21:28 14,0 C 11,2 C 77 % 1001,7 hPa 0,0 l/m 0 min 0 min 0,0 UV-I 0 W/m 0,0 km/h (0 Bft)
15.05.2013 21:30 13,9 C 11,2 C 77 % 1001,7 hPa 0,0 l/m 0 min 0 min 0,0 UV-I 0 W/m 0,0 km/h (0 Bft)
15.05.2013 21:32 13,8 C 10,7 C 77 % 1001,7 hPa 0,0 l/m 0 min 0 min 0,0 UV-I 0 W/m 0,0 km/h (0 Bft)
15.05.2013 21:34 13,8 C 10,7 C 77 % 1001,7 hPa 0,0 l/m 0 min 0 min 0,0 UV-I 0 W/m 0,0 km/h (0 Bft)
15.05.2013 21:36 13,8 C 10,7 C 77 % 1001,8 hPa 0,0 l/m 0 min 0 min 0,0 UV-I 0 W/m 0,0 km/h (0 Bft)
15.05.2013 21:38 13,7 C 10,1 C 77 % 1001,8 hPa 0,0 l/m 0 min 0 min 0,0 UV-I 0 W/m 0,0 km/h (0 Bft)
15.05.2013 21:40 13,7 C 10,1 C 77 % 1001,9 hPa 0,0 l/m 0 min 0 min 0,0 UV-I 0 W/m 0,0 km/h (0 Bft)
15.05.2013 21:42 13,7 C 10,1 C 77 % 1001,9 hPa 0,0 l/m 0 min 0 min 0,0 UV-I 0 W/m 0,0 km/h (0 Bft)
15.05.2013 21:44 13,6 C 9,6 C 78 % 1001,9 hPa 0,0 l/m 0 min 0 min 0,0 UV-I 0 W/m 0,0 km/h (0 Bft)
15.05.2013 21:46 13,6 C 9,6 C 78 % 1001,8 hPa 0,0 l/m 0 min 0 min 0,0 UV-I 0 W/m 0,0 km/h (0 Bft)
15.05.2013 21:48 13,4 C 9,6 C 78 % 1001,9 hPa 0,0 l/m 0 min 0 min 0,0 UV-I 0 W/m 0,0 km/h (0 Bft)
15.05.2013 21:50 13,4 C 9,6 C 78 % 1001,9 hPa 0,0 l/m 0 min 0 min 0,0 UV-I 0 W/m 0,0 km/h (0 Bft)
15.05.2013 21:52 13,3 C 9,6 C 78 % 1002,0 hPa 0,0 l/m 0 min 0 min 0,0 UV-I 0 W/m 0,0 km/h (0 Bft)
15.05.2013 21:54 13,2 C 9,6 C 79 % 1002,0 hPa 0,0 l/m 0 min 0 min 0,0 UV-I 0 W/m 0,0 km/h (0 Bft)
15.05.2013 21:56 13,2 C 9,0 C 79 % 1002,1 hPa 0,0 l/m 0 min 0 min 0,0 UV-I 0 W/m 0,0 km/h (0 Bft)
15.05.2013 21:58 13,1 C 9,0 C 79 % 1002,1 hPa 0,0 l/m 0 min 0 min 0,0 UV-I 0 W/m 0,0 km/h (0 Bft)
15.05.2013 22:00 13,0 C 9,0 C 79 % 1002,1 hPa 0,0 l/m 0 min 0 min 0,0 UV-I 0 W/m 0,0 km/h (0 Bft)
15.05.2013 22:02 12,9 C 9,0 C 80 % 1002,1 hPa 0,0 l/m 0 min 0 min 0,0 UV-I 0 W/m 0,0 km/h (0 Bft)
15.05.2013 22:04 12,8 C 9,0 C 80 % 1002,1 hPa 0,0 l/m 0 min 0 min 0,0 UV-I 0 W/m 0,0 km/h (0 Bft)
15.05.2013 22:06 12,7 C 9,0 C 80 % 1002,1 hPa 0,0 l/m 0 min 0 min 0,0 UV-I 0 W/m 0,0 km/h (0 Bft)
15.05.2013 22:08 12,7 C 9,0 C 80 % 1002,1 hPa 0,0 l/m 0 min 0 min 0,0 UV-I 0 W/m 0,0 km/h (0 Bft)
15.05.2013 22:10 12,6 C 9,0 C 81 % 1002,1 hPa 0,0 l/m 0 min 0 min 0,0 UV-I 0 W/m 0,0 km/h (0 Bft)
15.05.2013 22:12 12,5 C 8,4 C 81 % 1002,1 hPa 0,0 l/m 0 min 0 min 0,0 UV-I 0 W/m 0,0 km/h (0 Bft)
15.05.2013 22:14 12,4 C 8,4 C 81 % 1002,1 hPa 0,0 l/m 0 min 0 min 0,0 UV-I 0 W/m 0,0 km/h (0 Bft)
15.05.2013 22:16 12,4 C 8,4 C 81 % 1002,1 hPa 0,0 l/m 0 min 0 min 0,0 UV-I 0 W/m 0,0 km/h (0 Bft)
15.05.2013 22:18 12,3 C 8,4 C 81 % 1002,1 hPa 0,0 l/m 0 min 0 min 0,0 UV-I 0 W/m 0,0 km/h (0 Bft)
15.05.2013 22:20 12,2 C 8,4 C 81 % 1002,1 hPa 0,0 l/m 0 min 0 min 0,0 UV-I 0 W/m 0,0 km/h (0 Bft)
15.05.2013 22:22 12,2 C 8,4 C 81 % 1002,1 hPa 0,0 l/m 0 min 0 min 0,0 UV-I 0 W/m 0,0 km/h (0 Bft)
15.05.2013 22:24 12,1 C 8,4 C 82 % 1002,2 hPa 0,0 l/m 0 min 0 min 0,0 UV-I 0 W/m 0,0 km/h (0 Bft)
15.05.2013 22:26 11,9 C 8,4 C 82 % 1002,2 hPa 0,0 l/m 0 min 0 min 0,0 UV-I 0 W/m 0,0 km/h (0 Bft)
15.05.2013 22:28 11,8 C 8,4 C 82 % 1002,3 hPa 0,0 l/m 0 min 0 min 0,0 UV-I 0 W/m 0,0 km/h (0 Bft)
15.05.2013 22:30 11,8 C 8,4 C 83 % 1002,3 hPa 0,0 l/m 0 min 0 min 0,0 UV-I 0 W/m 0,0 km/h (0 Bft)
15.05.2013 22:32 11,7 C 8,4 C 83 % 1002,3 hPa 0,0 l/m 0 min 0 min 0,0 UV-I 0 W/m 0,0 km/h (0 Bft)
15.05.2013 22:34 11,6 C 8,4 C 83 % 1002,4 hPa 0,0 l/m 0 min 0 min 0,0 UV-I 0 W/m 0,0 km/h (0 Bft)
15.05.2013 22:36 11,5 C 8,4 C 84 % 1002,4 hPa 0,0 l/m 0 min 0 min 0,0 UV-I 0 W/m 0,0 km/h (0 Bft)
15.05.2013 22:38 11,4 C 8,4 C 84 % 1002,3 hPa 0,0 l/m 0 min 0 min 0,0 UV-I 0 W/m 0,0 km/h (0 Bft)
15.05.2013 22:40 11,3 C 8,4 C 84 % 1002,4 hPa 0,0 l/m 0 min 0 min 0,0 UV-I 0 W/m 0,0 km/h (0 Bft)
15.05.2013 22:42 11,3 C 8,4 C 84 % 1002,5 hPa 0,0 l/m 0 min 0 min 0,0 UV-I 0 W/m 0,0 km/h (0 Bft)
15.05.2013 22:44 11,2 C 8,4 C 85 % 1002,5 hPa 0,0 l/m 0 min 0 min 0,0 UV-I 0 W/m 0,0 km/h (0 Bft)
15.05.2013 22:46 11,2 C 8,4 C 85 % 1002,5 hPa 0,0 l/m 0 min 0 min 0,0 UV-I 0 W/m 0,0 km/h (0 Bft)
15.05.2013 22:48 11,1 C 8,4 C 85 % 1002,5 hPa 0,0 l/m 0 min 0 min 0,0 UV-I 0 W/m 0,0 km/h (0 Bft)
15.05.2013 22:50 11,1 C 8,4 C 85 % 1002,5 hPa 0,0 l/m 0 min 0 min 0,0 UV-I 0 W/m 0,0 km/h (0 Bft)
15.05.2013 22:52 11,1 C 8,4 C 85 % 1002,5 hPa 0,0 l/m 0 min 0 min 0,0 UV-I 0 W/m 0,0 km/h (0 Bft)
15.05.2013 22:54 11,0 C 8,4 C 85 % 1002,6 hPa 0,0 l/m 0 min 0 min 0,0 UV-I 0 W/m 0,0 km/h (0 Bft)
15.05.2013 22:56 10,9 C 9,0 C 85 % 1002,5 hPa 0,0 l/m 0 min 0 min 0,0 UV-I 0 W/m 0,0 km/h (0 Bft)
15.05.2013 22:58 10,9 C 9,0 C 85 % 1002,6 hPa 0,0 l/m 0 min 0 min 0,0 UV-I 0 W/m 0,0 km/h (0 Bft)
15.05.2013 23:00 10,9 C 9,0 C 86 % 1002,5 hPa 0,0 l/m 0 min 0 min 0,0 UV-I 0 W/m 0,0 km/h (0 Bft)
15.05.2013 23:02 10,8 C 9,0 C 86 % 1002,5 hPa 0,0 l/m 0 min 0 min 0,0 UV-I 0 W/m 0,0 km/h (0 Bft)
15.05.2013 23:04 10,8 C 9,0 C 86 % 1002,5 hPa 0,0 l/m 0 min 0 min 0,0 UV-I 0 W/m 0,0 km/h (0 Bft)
15.05.2013 23:06 10,8 C 9,0 C 86 % 1002,5 hPa 0,0 l/m 0 min 0 min 0,0 UV-I 0 W/m 0,0 km/h (0 Bft)
15.05.2013 23:08 10,8 C 9,0 C 86 % 1002,5 hPa 0,0 l/m 0 min 0 min 0,0 UV-I 0 W/m 0,0 km/h (0 Bft)
15.05.2013 23:10 10,8 C 9,0 C 86 % 1002,5 hPa 0,0 l/m 0 min 0 min 0,0 UV-I 0 W/m 0,0 km/h (0 Bft)
15.05.2013 23:12 10,7 C 9,0 C 86 % 1002,5 hPa 0,0 l/m 0 min 0 min 0,0 UV-I 0 W/m 0,0 km/h (0 Bft)
15.05.2013 23:14 10,7 C 8,4 C 87 % 1002,5 hPa 0,0 l/m 0 min 0 min 0,0 UV-I 0 W/m 0,0 km/h (0 Bft)
15.05.2013 23:16 10,7 C 8,4 C 87 % 1002,5 hPa 0,0 l/m 0 min 0 min 0,0 UV-I 0 W/m 0,0 km/h (0 Bft)
15.05.2013 23:18 10,7 C 8,4 C 87 % 1002,5 hPa 0,0 l/m 0 min 0 min 0,0 UV-I 0 W/m 0,0 km/h (0 Bft)
15.05.2013 23:20 10,6 C 8,4 C 87 % 1002,5 hPa 0,0 l/m 0 min 0 min 0,0 UV-I 0 W/m 0,0 km/h (0 Bft)
15.05.2013 23:22 10,6 C 8,4 C 87 % 1002,5 hPa 0,0 l/m 0 min 0 min 0,0 UV-I 0 W/m 0,0 km/h (0 Bft)
15.05.2013 23:24 10,6 C 8,4 C 87 % 1002,5 hPa 0,0 l/m 0 min 0 min 0,0 UV-I 0 W/m 0,0 km/h (0 Bft)
15.05.2013 23:26 10,6 C 8,4 C 87 % 1002,4 hPa 0,0 l/m 0 min 0 min 0,0 UV-I 0 W/m 0,0 km/h (0 Bft)
15.05.2013 23:28 10,5 C 8,4 C 87 % 1002,4 hPa 0,0 l/m 0 min 0 min 0,0 UV-I 0 W/m 0,0 km/h (0 Bft)
15.05.2013 23:30 10,5 C 8,4 C 87 % 1002,4 hPa 0,0 l/m 0 min 0 min 0,0 UV-I 0 W/m 0,0 km/h (0 Bft)
15.05.2013 23:32 10,4 C 8,4 C 88 % 1002,5 hPa 0,0 l/m 0 min 0 min 0,0 UV-I 0 W/m 0,0 km/h (0 Bft)
15.05.2013 23:34 10,4 C 8,4 C 88 % 1002,5 hPa 0,0 l/m 0 min 0 min 0,0 UV-I 0 W/m 0,0 km/h (0 Bft)
15.05.2013 23:36 10,4 C 8,4 C 88 % 1002,5 hPa 0,0 l/m 0 min 0 min 0,0 UV-I 0 W/m 0,0 km/h (0 Bft)
15.05.2013 23:38 10,4 C 8,4 C 88 % 1002,5 hPa 0,0 l/m 0 min 0 min 0,0 UV-I 0 W/m 0,0 km/h (0 Bft)
15.05.2013 23:40 10,4 C 8,4 C 88 % 1002,4 hPa 0,0 l/m 0 min 0 min 0,0 UV-I 0 W/m 0,0 km/h (0 Bft)
15.05.2013 23:42 10,3 C 8,4 C 88 % 1002,4 hPa 0,0 l/m 0 min 0 min 0,0 UV-I 0 W/m 0,0 km/h (0 Bft)
15.05.2013 23:44 10,3 C 9,0 C 88 % 1002,3 hPa 0,0 l/m 0 min 0 min 0,0 UV-I 0 W/m 0,0 km/h (0 Bft)
15.05.2013 23:46 10,3 C 9,0 C 88 % 1002,3 hPa 0,0 l/m 0 min 0 min 0,0 UV-I 0 W/m 0,0 km/h (0 Bft)
15.05.2013 23:48 10,3 C 9,0 C 88 % 1002,3 hPa 0,0 l/m 0 min 0 min 0,0 UV-I 0 W/m 0,0 km/h (0 Bft)
15.05.2013 23:50 10,3 C 9,0 C 88 % 1002,3 hPa 0,0 l/m 0 min 0 min 0,0 UV-I 0 W/m 0,0 km/h (0 Bft)
15.05.2013 23:52 10,3 C 9,0 C 88 % 1002,2 hPa 0,0 l/m 0 min 0 min 0,0 UV-I 0 W/m 0,0 km/h (0 Bft)
15.05.2013 23:54 10,3 C 9,0 C 88 % 1002,3 hPa 0,0 l/m 0 min 0 min 0,0 UV-I 0 W/m 0,0 km/h (0 Bft)
15.05.2013 23:56 10,3 C 9,0 C 88 % 1002,2 hPa 0,0 l/m 0 min 0 min 0,0 UV-I 0 W/m 0,0 km/h (0 Bft)
15.05.2013 23:58 10,2 C 9,0 C 88 % 1002,3 hPa 0,0 l/m 0 min 0 min 0,0 UV-I 0 W/m 0,0 km/h (0 Bft)
_ Min-Zeit 01:42 00:56 19:22 05:24 - - - - - 00:00
Minimum _ 8,6 C 6,8 C 72 % 998,1 hPa - - - - - 0,0 km/h (0 Bft)
_ Max-Zeit 19:24 19:10 02:36 00:00 11:04 06:42 07:46 13:10 13:30 05:46
Maximum _ 15,7 C 15,1 C 96 % 1002,7 hPa 0,2 l/m 2 min 2 min 1,4 UV-I 309 W/m 23,2 km/h
S-SO (4 Bft)
Durchschnitt _ 12,4 C 11,1 C 87 % 1000,3 hPa #1,0 l/m #22 min. #1:56 h 0,8 UV-I 101 W/m 5,5 km/h (1 Bft)
© 2013 W. Hausmann